<?xml version="1.0" encoding="UTF-8" standalone="no" ?>
<gpx xmlns="http://www.topografix.com/GPX/1/1" xmlns:xsi="http://www.w3.org/2001/XMLSchema-instance" xsi:schemaLocation="http://www.topografix.com/GPX/1/1 http://www.topografix.com/GPX/1/1/gpx.xsd" version="1.1" creator="VisuGPX - https://www.visugpx.com">
  <metadata>
    <name>GILLY-les-CITEAUX(1)</name>
    <desc><![CDATA[Bonne marche au départ de Gilly-les-Citeaux. Itinéraire classique en campagne.]]></desc>
  </metadata>
  <trk>
    <name><![CDATA[2019-12-03-01]]></name>
    <trkseg>
      <trkpt lat="47.17239" lon="4.98149">
        <ele>222.6</ele>
        <time>2019-12-03T12:59:30Z</time>
      </trkpt>
      <trkpt lat="47.17239" lon="4.98149">
        <ele>222.6</ele>
        <time>2019-12-03T12:59:31Z</time>
      </trkpt>
      <trkpt lat="47.17233" lon="4.9816">
        <ele>220.6</ele>
        <time>2019-12-03T12:59:42Z</time>
      </trkpt>
      <trkpt lat="47.1723" lon="4.98173">
        <ele>218.8</ele>
        <time>2019-12-03T12:59:50Z</time>
      </trkpt>
      <trkpt lat="47.17227" lon="4.98186">
        <ele>216.6</ele>
        <time>2019-12-03T12:59:59Z</time>
      </trkpt>
      <trkpt lat="47.17224" lon="4.982">
        <ele>216.6</ele>
        <time>2019-12-03T13:00:07Z</time>
      </trkpt>
      <trkpt lat="47.17219" lon="4.98212">
        <ele>216.3</ele>
        <time>2019-12-03T13:00:13Z</time>
      </trkpt>
      <trkpt lat="47.17216" lon="4.98224">
        <ele>211.1</ele>
        <time>2019-12-03T13:00:24Z</time>
      </trkpt>
      <trkpt lat="47.17213" lon="4.98237">
        <ele>208.7</ele>
        <time>2019-12-03T13:00:35Z</time>
      </trkpt>
      <trkpt lat="47.1721" lon="4.9825">
        <ele>206.2</ele>
        <time>2019-12-03T13:00:45Z</time>
      </trkpt>
      <trkpt lat="47.17206" lon="4.98262">
        <ele>203.9</ele>
        <time>2019-12-03T13:00:55Z</time>
      </trkpt>
      <trkpt lat="47.17202" lon="4.98275">
        <ele>203.6</ele>
        <time>2019-12-03T13:01:03Z</time>
      </trkpt>
      <trkpt lat="47.17199" lon="4.98288">
        <ele>204.8</ele>
        <time>2019-12-03T13:01:10Z</time>
      </trkpt>
      <trkpt lat="47.17196" lon="4.98301">
        <ele>206.8</ele>
        <time>2019-12-03T13:01:17Z</time>
      </trkpt>
      <trkpt lat="47.17193" lon="4.98314">
        <ele>209.4</ele>
        <time>2019-12-03T13:01:24Z</time>
      </trkpt>
      <trkpt lat="47.17191" lon="4.98328">
        <ele>212.2</ele>
        <time>2019-12-03T13:01:32Z</time>
      </trkpt>
      <trkpt lat="47.17191" lon="4.98343">
        <ele>214.9</ele>
        <time>2019-12-03T13:01:40Z</time>
      </trkpt>
      <trkpt lat="47.1719" lon="4.98358">
        <ele>218.5</ele>
        <time>2019-12-03T13:01:47Z</time>
      </trkpt>
      <trkpt lat="47.17187" lon="4.98371">
        <ele>221</ele>
        <time>2019-12-03T13:01:54Z</time>
      </trkpt>
      <trkpt lat="47.17178" lon="4.98373">
        <ele>224.3</ele>
        <time>2019-12-03T13:02:02Z</time>
      </trkpt>
      <trkpt lat="47.17169" lon="4.98369">
        <ele>223.4</ele>
        <time>2019-12-03T13:02:10Z</time>
      </trkpt>
      <trkpt lat="47.1716" lon="4.98363">
        <ele>223.5</ele>
        <time>2019-12-03T13:02:18Z</time>
      </trkpt>
      <trkpt lat="47.17152" lon="4.98356">
        <ele>224.1</ele>
        <time>2019-12-03T13:02:26Z</time>
      </trkpt>
      <trkpt lat="47.17143" lon="4.98354">
        <ele>224.3</ele>
        <time>2019-12-03T13:02:32Z</time>
      </trkpt>
      <trkpt lat="47.17133" lon="4.98353">
        <ele>224.6</ele>
        <time>2019-12-03T13:02:39Z</time>
      </trkpt>
      <trkpt lat="47.17124" lon="4.98352">
        <ele>224.5</ele>
        <time>2019-12-03T13:02:46Z</time>
      </trkpt>
      <trkpt lat="47.17115" lon="4.9835">
        <ele>224.9</ele>
        <time>2019-12-03T13:02:55Z</time>
      </trkpt>
      <trkpt lat="47.17106" lon="4.98353">
        <ele>224.4</ele>
        <time>2019-12-03T13:03:03Z</time>
      </trkpt>
      <trkpt lat="47.17098" lon="4.98364">
        <ele>222.8</ele>
        <time>2019-12-03T13:03:10Z</time>
      </trkpt>
      <trkpt lat="47.17091" lon="4.98376">
        <ele>220.4</ele>
        <time>2019-12-03T13:03:16Z</time>
      </trkpt>
      <trkpt lat="47.17085" lon="4.98387">
        <ele>218.1</ele>
        <time>2019-12-03T13:03:24Z</time>
      </trkpt>
      <trkpt lat="47.17081" lon="4.984">
        <ele>215.4</ele>
        <time>2019-12-03T13:04:00Z</time>
      </trkpt>
      <trkpt lat="47.17084" lon="4.98413">
        <ele>214.4</ele>
        <time>2019-12-03T13:04:08Z</time>
      </trkpt>
      <trkpt lat="47.17092" lon="4.98422">
        <ele>214.9</ele>
        <time>2019-12-03T13:04:15Z</time>
      </trkpt>
      <trkpt lat="47.17101" lon="4.98428">
        <ele>215.2</ele>
        <time>2019-12-03T13:04:22Z</time>
      </trkpt>
      <trkpt lat="47.17108" lon="4.98436">
        <ele>213.2</ele>
        <time>2019-12-03T13:04:30Z</time>
      </trkpt>
      <trkpt lat="47.17115" lon="4.98446">
        <ele>211.5</ele>
        <time>2019-12-03T13:04:39Z</time>
      </trkpt>
      <trkpt lat="47.17122" lon="4.98456">
        <ele>211</ele>
        <time>2019-12-03T13:04:48Z</time>
      </trkpt>
      <trkpt lat="47.17127" lon="4.98467">
        <ele>209.8</ele>
        <time>2019-12-03T13:04:57Z</time>
      </trkpt>
      <trkpt lat="47.17132" lon="4.9848">
        <ele>208.6</ele>
        <time>2019-12-03T13:05:07Z</time>
      </trkpt>
      <trkpt lat="47.17136" lon="4.98491">
        <ele>207.5</ele>
        <time>2019-12-03T13:05:16Z</time>
      </trkpt>
      <trkpt lat="47.17142" lon="4.98503">
        <ele>206.5</ele>
        <time>2019-12-03T13:05:24Z</time>
      </trkpt>
      <trkpt lat="47.1715" lon="4.98512">
        <ele>207.6</ele>
        <time>2019-12-03T13:05:31Z</time>
      </trkpt>
      <trkpt lat="47.17157" lon="4.9852">
        <ele>209.9</ele>
        <time>2019-12-03T13:05:38Z</time>
      </trkpt>
      <trkpt lat="47.17162" lon="4.98531">
        <ele>211.9</ele>
        <time>2019-12-03T13:05:46Z</time>
      </trkpt>
      <trkpt lat="47.17167" lon="4.98544">
        <ele>212.4</ele>
        <time>2019-12-03T13:05:54Z</time>
      </trkpt>
      <trkpt lat="47.17168" lon="4.98557">
        <ele>210.7</ele>
        <time>2019-12-03T13:06:02Z</time>
      </trkpt>
      <trkpt lat="47.17168" lon="4.98571">
        <ele>210.1</ele>
        <time>2019-12-03T13:06:10Z</time>
      </trkpt>
      <trkpt lat="47.17167" lon="4.98585">
        <ele>212.1</ele>
        <time>2019-12-03T13:06:18Z</time>
      </trkpt>
      <trkpt lat="47.17166" lon="4.98599">
        <ele>212.7</ele>
        <time>2019-12-03T13:06:27Z</time>
      </trkpt>
      <trkpt lat="47.17162" lon="4.98613">
        <ele>213.1</ele>
        <time>2019-12-03T13:06:35Z</time>
      </trkpt>
      <trkpt lat="47.1716" lon="4.98627">
        <ele>212.5</ele>
        <time>2019-12-03T13:06:43Z</time>
      </trkpt>
      <trkpt lat="47.17158" lon="4.9864">
        <ele>210.8</ele>
        <time>2019-12-03T13:06:50Z</time>
      </trkpt>
      <trkpt lat="47.17158" lon="4.98654">
        <ele>205.9</ele>
        <time>2019-12-03T13:06:58Z</time>
      </trkpt>
      <trkpt lat="47.17157" lon="4.98668">
        <ele>202.8</ele>
        <time>2019-12-03T13:07:07Z</time>
      </trkpt>
      <trkpt lat="47.17155" lon="4.98682">
        <ele>205.2</ele>
        <time>2019-12-03T13:07:16Z</time>
      </trkpt>
      <trkpt lat="47.17157" lon="4.98696">
        <ele>206.1</ele>
        <time>2019-12-03T13:07:24Z</time>
      </trkpt>
      <trkpt lat="47.17155" lon="4.9871">
        <ele>206.1</ele>
        <time>2019-12-03T13:07:31Z</time>
      </trkpt>
      <trkpt lat="47.17155" lon="4.98724">
        <ele>205.8</ele>
        <time>2019-12-03T13:07:40Z</time>
      </trkpt>
      <trkpt lat="47.17159" lon="4.98737">
        <ele>205.3</ele>
        <time>2019-12-03T13:07:49Z</time>
      </trkpt>
      <trkpt lat="47.17159" lon="4.98751">
        <ele>208.2</ele>
        <time>2019-12-03T13:07:57Z</time>
      </trkpt>
      <trkpt lat="47.17158" lon="4.98766">
        <ele>210.1</ele>
        <time>2019-12-03T13:08:05Z</time>
      </trkpt>
      <trkpt lat="47.17155" lon="4.98778">
        <ele>210.7</ele>
        <time>2019-12-03T13:08:12Z</time>
      </trkpt>
      <trkpt lat="47.17152" lon="4.98792">
        <ele>211.2</ele>
        <time>2019-12-03T13:08:19Z</time>
      </trkpt>
      <trkpt lat="47.1715" lon="4.98807">
        <ele>211.8</ele>
        <time>2019-12-03T13:08:26Z</time>
      </trkpt>
      <trkpt lat="47.17149" lon="4.98821">
        <ele>210.9</ele>
        <time>2019-12-03T13:08:35Z</time>
      </trkpt>
      <trkpt lat="47.17147" lon="4.98834">
        <ele>211.5</ele>
        <time>2019-12-03T13:08:44Z</time>
      </trkpt>
      <trkpt lat="47.17144" lon="4.98847">
        <ele>213.3</ele>
        <time>2019-12-03T13:08:55Z</time>
      </trkpt>
      <trkpt lat="47.17154" lon="4.98846">
        <ele>212.5</ele>
        <time>2019-12-03T13:09:38Z</time>
      </trkpt>
      <trkpt lat="47.17145" lon="4.98845">
        <ele>216.7</ele>
        <time>2019-12-03T13:10:52Z</time>
      </trkpt>
      <trkpt lat="47.17148" lon="4.98858">
        <ele>213.7</ele>
        <time>2019-12-03T13:11:55Z</time>
      </trkpt>
      <trkpt lat="47.1715" lon="4.98872">
        <ele>212.5</ele>
        <time>2019-12-03T13:12:02Z</time>
      </trkpt>
      <trkpt lat="47.1715" lon="4.98885">
        <ele>210.7</ele>
        <time>2019-12-03T13:12:09Z</time>
      </trkpt>
      <trkpt lat="47.1715" lon="4.989">
        <ele>208.5</ele>
        <time>2019-12-03T13:12:17Z</time>
      </trkpt>
      <trkpt lat="47.17153" lon="4.98914">
        <ele>209.7</ele>
        <time>2019-12-03T13:12:25Z</time>
      </trkpt>
      <trkpt lat="47.17159" lon="4.98926">
        <ele>208.9</ele>
        <time>2019-12-03T13:12:33Z</time>
      </trkpt>
      <trkpt lat="47.17168" lon="4.98931">
        <ele>207.7</ele>
        <time>2019-12-03T13:12:41Z</time>
      </trkpt>
      <trkpt lat="47.17178" lon="4.98929">
        <ele>207.2</ele>
        <time>2019-12-03T13:12:46Z</time>
      </trkpt>
      <trkpt lat="47.17187" lon="4.98935">
        <ele>207.4</ele>
        <time>2019-12-03T13:12:53Z</time>
      </trkpt>
      <trkpt lat="47.17196" lon="4.98942">
        <ele>208.2</ele>
        <time>2019-12-03T13:13:00Z</time>
      </trkpt>
      <trkpt lat="47.17203" lon="4.98952">
        <ele>208</ele>
        <time>2019-12-03T13:13:09Z</time>
      </trkpt>
      <trkpt lat="47.1721" lon="4.98962">
        <ele>207.2</ele>
        <time>2019-12-03T13:13:18Z</time>
      </trkpt>
      <trkpt lat="47.17216" lon="4.98972">
        <ele>207.2</ele>
        <time>2019-12-03T13:13:28Z</time>
      </trkpt>
      <trkpt lat="47.17221" lon="4.98984">
        <ele>208</ele>
        <time>2019-12-03T13:13:38Z</time>
      </trkpt>
      <trkpt lat="47.17224" lon="4.98997">
        <ele>205.5</ele>
        <time>2019-12-03T13:13:48Z</time>
      </trkpt>
      <trkpt lat="47.17227" lon="4.99011">
        <ele>202.7</ele>
        <time>2019-12-03T13:13:57Z</time>
      </trkpt>
      <trkpt lat="47.17227" lon="4.99025">
        <ele>201.6</ele>
        <time>2019-12-03T13:14:06Z</time>
      </trkpt>
      <trkpt lat="47.17234" lon="4.99035">
        <ele>203</ele>
        <time>2019-12-03T13:14:15Z</time>
      </trkpt>
      <trkpt lat="47.17239" lon="4.99047">
        <ele>206.4</ele>
        <time>2019-12-03T13:14:24Z</time>
      </trkpt>
      <trkpt lat="47.17246" lon="4.99058">
        <ele>210</ele>
        <time>2019-12-03T13:14:32Z</time>
      </trkpt>
      <trkpt lat="47.17251" lon="4.9907">
        <ele>212</ele>
        <time>2019-12-03T13:14:40Z</time>
      </trkpt>
      <trkpt lat="47.17256" lon="4.99081">
        <ele>214.5</ele>
        <time>2019-12-03T13:14:49Z</time>
      </trkpt>
      <trkpt lat="47.1726" lon="4.99094">
        <ele>213.6</ele>
        <time>2019-12-03T13:14:59Z</time>
      </trkpt>
      <trkpt lat="47.17263" lon="4.99106">
        <ele>212.5</ele>
        <time>2019-12-03T13:15:07Z</time>
      </trkpt>
      <trkpt lat="47.1727" lon="4.99116">
        <ele>214.2</ele>
        <time>2019-12-03T13:15:17Z</time>
      </trkpt>
      <trkpt lat="47.17279" lon="4.99122">
        <ele>213</ele>
        <time>2019-12-03T13:15:25Z</time>
      </trkpt>
      <trkpt lat="47.17289" lon="4.99123">
        <ele>212.6</ele>
        <time>2019-12-03T13:15:33Z</time>
      </trkpt>
      <trkpt lat="47.17291" lon="4.99136">
        <ele>208</ele>
        <time>2019-12-03T13:16:25Z</time>
      </trkpt>
      <trkpt lat="47.17286" lon="4.99148">
        <ele>208.8</ele>
        <time>2019-12-03T13:16:35Z</time>
      </trkpt>
      <trkpt lat="47.17282" lon="4.9916">
        <ele>210.9</ele>
        <time>2019-12-03T13:16:44Z</time>
      </trkpt>
      <trkpt lat="47.17277" lon="4.99173">
        <ele>213.9</ele>
        <time>2019-12-03T13:16:55Z</time>
      </trkpt>
      <trkpt lat="47.17273" lon="4.99186">
        <ele>216</ele>
        <time>2019-12-03T13:17:05Z</time>
      </trkpt>
      <trkpt lat="47.17269" lon="4.99199">
        <ele>215</ele>
        <time>2019-12-03T13:17:14Z</time>
      </trkpt>
      <trkpt lat="47.17263" lon="4.99211">
        <ele>213.7</ele>
        <time>2019-12-03T13:17:22Z</time>
      </trkpt>
      <trkpt lat="47.17257" lon="4.99222">
        <ele>212.2</ele>
        <time>2019-12-03T13:17:30Z</time>
      </trkpt>
      <trkpt lat="47.1725" lon="4.99231">
        <ele>211.4</ele>
        <time>2019-12-03T13:17:38Z</time>
      </trkpt>
      <trkpt lat="47.17242" lon="4.99239">
        <ele>211.5</ele>
        <time>2019-12-03T13:17:46Z</time>
      </trkpt>
      <trkpt lat="47.17236" lon="4.99248">
        <ele>213.7</ele>
        <time>2019-12-03T13:17:55Z</time>
      </trkpt>
      <trkpt lat="47.17229" lon="4.99258">
        <ele>215.1</ele>
        <time>2019-12-03T13:18:06Z</time>
      </trkpt>
      <trkpt lat="47.17222" lon="4.99268">
        <ele>216</ele>
        <time>2019-12-03T13:18:17Z</time>
      </trkpt>
      <trkpt lat="47.17215" lon="4.99278">
        <ele>217.1</ele>
        <time>2019-12-03T13:18:27Z</time>
      </trkpt>
      <trkpt lat="47.17209" lon="4.99288">
        <ele>219.2</ele>
        <time>2019-12-03T13:18:34Z</time>
      </trkpt>
      <trkpt lat="47.17203" lon="4.99299">
        <ele>220.6</ele>
        <time>2019-12-03T13:18:43Z</time>
      </trkpt>
      <trkpt lat="47.17199" lon="4.99311">
        <ele>219.5</ele>
        <time>2019-12-03T13:18:52Z</time>
      </trkpt>
      <trkpt lat="47.17196" lon="4.99324">
        <ele>218.9</ele>
        <time>2019-12-03T13:19:00Z</time>
      </trkpt>
      <trkpt lat="47.17193" lon="4.99338">
        <ele>218.5</ele>
        <time>2019-12-03T13:19:07Z</time>
      </trkpt>
      <trkpt lat="47.17191" lon="4.99352">
        <ele>219.1</ele>
        <time>2019-12-03T13:19:16Z</time>
      </trkpt>
      <trkpt lat="47.17187" lon="4.99365">
        <ele>219</ele>
        <time>2019-12-03T13:19:24Z</time>
      </trkpt>
      <trkpt lat="47.17184" lon="4.99379">
        <ele>217.9</ele>
        <time>2019-12-03T13:19:33Z</time>
      </trkpt>
      <trkpt lat="47.1718" lon="4.99392">
        <ele>216</ele>
        <time>2019-12-03T13:19:43Z</time>
      </trkpt>
      <trkpt lat="47.17177" lon="4.99405">
        <ele>213.7</ele>
        <time>2019-12-03T13:19:51Z</time>
      </trkpt>
      <trkpt lat="47.17173" lon="4.99418">
        <ele>211.3</ele>
        <time>2019-12-03T13:19:59Z</time>
      </trkpt>
      <trkpt lat="47.17168" lon="4.9943">
        <ele>210</ele>
        <time>2019-12-03T13:20:07Z</time>
      </trkpt>
      <trkpt lat="47.17164" lon="4.99443">
        <ele>209.6</ele>
        <time>2019-12-03T13:20:17Z</time>
      </trkpt>
      <trkpt lat="47.17162" lon="4.99457">
        <ele>210.4</ele>
        <time>2019-12-03T13:20:27Z</time>
      </trkpt>
      <trkpt lat="47.17159" lon="4.99471">
        <ele>211.4</ele>
        <time>2019-12-03T13:20:37Z</time>
      </trkpt>
      <trkpt lat="47.17155" lon="4.99483">
        <ele>212.2</ele>
        <time>2019-12-03T13:20:46Z</time>
      </trkpt>
      <trkpt lat="47.17151" lon="4.99496">
        <ele>212.9</ele>
        <time>2019-12-03T13:20:55Z</time>
      </trkpt>
      <trkpt lat="47.1715" lon="4.9951">
        <ele>212.3</ele>
        <time>2019-12-03T13:21:02Z</time>
      </trkpt>
      <trkpt lat="47.17149" lon="4.99524">
        <ele>213</ele>
        <time>2019-12-03T13:21:09Z</time>
      </trkpt>
      <trkpt lat="47.17151" lon="4.99538">
        <ele>214</ele>
        <time>2019-12-03T13:21:17Z</time>
      </trkpt>
      <trkpt lat="47.17152" lon="4.99552">
        <ele>213.4</ele>
        <time>2019-12-03T13:21:27Z</time>
      </trkpt>
      <trkpt lat="47.17151" lon="4.99566">
        <ele>213.8</ele>
        <time>2019-12-03T13:21:37Z</time>
      </trkpt>
      <trkpt lat="47.17153" lon="4.99579">
        <ele>215.1</ele>
        <time>2019-12-03T13:21:51Z</time>
      </trkpt>
      <trkpt lat="47.17157" lon="4.99591">
        <ele>217.1</ele>
        <time>2019-12-03T13:22:35Z</time>
      </trkpt>
      <trkpt lat="47.17161" lon="4.99603">
        <ele>212.8</ele>
        <time>2019-12-03T13:22:46Z</time>
      </trkpt>
      <trkpt lat="47.17161" lon="4.99617">
        <ele>210.7</ele>
        <time>2019-12-03T13:22:55Z</time>
      </trkpt>
      <trkpt lat="47.17162" lon="4.9963">
        <ele>211.4</ele>
        <time>2019-12-03T13:23:03Z</time>
      </trkpt>
      <trkpt lat="47.17161" lon="4.99645">
        <ele>212</ele>
        <time>2019-12-03T13:23:12Z</time>
      </trkpt>
      <trkpt lat="47.17158" lon="4.99659">
        <ele>211.8</ele>
        <time>2019-12-03T13:23:20Z</time>
      </trkpt>
      <trkpt lat="47.17156" lon="4.99673">
        <ele>212.6</ele>
        <time>2019-12-03T13:23:29Z</time>
      </trkpt>
      <trkpt lat="47.17155" lon="4.99688">
        <ele>212.8</ele>
        <time>2019-12-03T13:23:37Z</time>
      </trkpt>
      <trkpt lat="47.17155" lon="4.99703">
        <ele>212.3</ele>
        <time>2019-12-03T13:23:45Z</time>
      </trkpt>
      <trkpt lat="47.17154" lon="4.99717">
        <ele>212.2</ele>
        <time>2019-12-03T13:23:54Z</time>
      </trkpt>
      <trkpt lat="47.17153" lon="4.99733">
        <ele>213</ele>
        <time>2019-12-03T13:24:02Z</time>
      </trkpt>
      <trkpt lat="47.17154" lon="4.99746">
        <ele>214.4</ele>
        <time>2019-12-03T13:24:10Z</time>
      </trkpt>
      <trkpt lat="47.17154" lon="4.9976">
        <ele>215.2</ele>
        <time>2019-12-03T13:24:19Z</time>
      </trkpt>
      <trkpt lat="47.17154" lon="4.99774">
        <ele>214.5</ele>
        <time>2019-12-03T13:24:28Z</time>
      </trkpt>
      <trkpt lat="47.17152" lon="4.99787">
        <ele>215</ele>
        <time>2019-12-03T13:24:36Z</time>
      </trkpt>
      <trkpt lat="47.1715" lon="4.99801">
        <ele>217.1</ele>
        <time>2019-12-03T13:24:44Z</time>
      </trkpt>
      <trkpt lat="47.17148" lon="4.99814">
        <ele>217.8</ele>
        <time>2019-12-03T13:24:51Z</time>
      </trkpt>
      <trkpt lat="47.17146" lon="4.99828">
        <ele>217.3</ele>
        <time>2019-12-03T13:24:59Z</time>
      </trkpt>
      <trkpt lat="47.17147" lon="4.99842">
        <ele>216.6</ele>
        <time>2019-12-03T13:25:07Z</time>
      </trkpt>
      <trkpt lat="47.1715" lon="4.99855">
        <ele>213.3</ele>
        <time>2019-12-03T13:25:17Z</time>
      </trkpt>
      <trkpt lat="47.17156" lon="4.99868">
        <ele>212</ele>
        <time>2019-12-03T13:25:30Z</time>
      </trkpt>
      <trkpt lat="47.17159" lon="4.9988">
        <ele>212.5</ele>
        <time>2019-12-03T13:25:38Z</time>
      </trkpt>
      <trkpt lat="47.17162" lon="4.99893">
        <ele>212.2</ele>
        <time>2019-12-03T13:25:47Z</time>
      </trkpt>
      <trkpt lat="47.17164" lon="4.99908">
        <ele>211</ele>
        <time>2019-12-03T13:25:57Z</time>
      </trkpt>
      <trkpt lat="47.17166" lon="4.99922">
        <ele>210.9</ele>
        <time>2019-12-03T13:26:06Z</time>
      </trkpt>
      <trkpt lat="47.17168" lon="4.99935">
        <ele>213.5</ele>
        <time>2019-12-03T13:26:15Z</time>
      </trkpt>
      <trkpt lat="47.17169" lon="4.99948">
        <ele>215.6</ele>
        <time>2019-12-03T13:26:23Z</time>
      </trkpt>
      <trkpt lat="47.17171" lon="4.99962">
        <ele>217</ele>
        <time>2019-12-03T13:26:33Z</time>
      </trkpt>
      <trkpt lat="47.17173" lon="4.99976">
        <ele>218.6</ele>
        <time>2019-12-03T13:26:42Z</time>
      </trkpt>
      <trkpt lat="47.17175" lon="4.9999">
        <ele>219.1</ele>
        <time>2019-12-03T13:26:50Z</time>
      </trkpt>
      <trkpt lat="47.17177" lon="5.00003">
        <ele>220.4</ele>
        <time>2019-12-03T13:26:59Z</time>
      </trkpt>
      <trkpt lat="47.17177" lon="5.00017">
        <ele>220.7</ele>
        <time>2019-12-03T13:27:10Z</time>
      </trkpt>
      <trkpt lat="47.17176" lon="5.00031">
        <ele>220.5</ele>
        <time>2019-12-03T13:27:19Z</time>
      </trkpt>
      <trkpt lat="47.17177" lon="5.00044">
        <ele>219</ele>
        <time>2019-12-03T13:27:28Z</time>
      </trkpt>
      <trkpt lat="47.17178" lon="5.00058">
        <ele>216.6</ele>
        <time>2019-12-03T13:27:38Z</time>
      </trkpt>
      <trkpt lat="47.17178" lon="5.00071">
        <ele>214.6</ele>
        <time>2019-12-03T13:27:47Z</time>
      </trkpt>
      <trkpt lat="47.17177" lon="5.00085">
        <ele>214.5</ele>
        <time>2019-12-03T13:27:57Z</time>
      </trkpt>
      <trkpt lat="47.17178" lon="5.001">
        <ele>214.4</ele>
        <time>2019-12-03T13:28:07Z</time>
      </trkpt>
      <trkpt lat="47.17178" lon="5.00114">
        <ele>214</ele>
        <time>2019-12-03T13:28:16Z</time>
      </trkpt>
      <trkpt lat="47.17177" lon="5.00128">
        <ele>213.9</ele>
        <time>2019-12-03T13:28:24Z</time>
      </trkpt>
      <trkpt lat="47.17177" lon="5.00142">
        <ele>213.5</ele>
        <time>2019-12-03T13:28:32Z</time>
      </trkpt>
      <trkpt lat="47.17177" lon="5.00156">
        <ele>212.8</ele>
        <time>2019-12-03T13:28:41Z</time>
      </trkpt>
      <trkpt lat="47.17176" lon="5.0017">
        <ele>211.8</ele>
        <time>2019-12-03T13:28:50Z</time>
      </trkpt>
      <trkpt lat="47.17175" lon="5.00185">
        <ele>210.6</ele>
        <time>2019-12-03T13:28:58Z</time>
      </trkpt>
      <trkpt lat="47.17175" lon="5.002">
        <ele>209.6</ele>
        <time>2019-12-03T13:29:07Z</time>
      </trkpt>
      <trkpt lat="47.17176" lon="5.00214">
        <ele>207.8</ele>
        <time>2019-12-03T13:29:16Z</time>
      </trkpt>
      <trkpt lat="47.17178" lon="5.00227">
        <ele>206.3</ele>
        <time>2019-12-03T13:29:25Z</time>
      </trkpt>
      <trkpt lat="47.1718" lon="5.00241">
        <ele>206.4</ele>
        <time>2019-12-03T13:29:33Z</time>
      </trkpt>
      <trkpt lat="47.17183" lon="5.00255">
        <ele>206.7</ele>
        <time>2019-12-03T13:29:41Z</time>
      </trkpt>
      <trkpt lat="47.17184" lon="5.00269">
        <ele>207.8</ele>
        <time>2019-12-03T13:29:49Z</time>
      </trkpt>
      <trkpt lat="47.17184" lon="5.00282">
        <ele>209</ele>
        <time>2019-12-03T13:29:57Z</time>
      </trkpt>
      <trkpt lat="47.17186" lon="5.00297">
        <ele>208.8</ele>
        <time>2019-12-03T13:30:06Z</time>
      </trkpt>
      <trkpt lat="47.17186" lon="5.0031">
        <ele>210.2</ele>
        <time>2019-12-03T13:30:14Z</time>
      </trkpt>
      <trkpt lat="47.17188" lon="5.00324">
        <ele>211.9</ele>
        <time>2019-12-03T13:30:22Z</time>
      </trkpt>
      <trkpt lat="47.17191" lon="5.00337">
        <ele>214.1</ele>
        <time>2019-12-03T13:30:29Z</time>
      </trkpt>
      <trkpt lat="47.17194" lon="5.00351">
        <ele>216.4</ele>
        <time>2019-12-03T13:30:37Z</time>
      </trkpt>
      <trkpt lat="47.17196" lon="5.00365">
        <ele>217.1</ele>
        <time>2019-12-03T13:30:45Z</time>
      </trkpt>
      <trkpt lat="47.17198" lon="5.00378">
        <ele>216.3</ele>
        <time>2019-12-03T13:30:54Z</time>
      </trkpt>
      <trkpt lat="47.17201" lon="5.0039">
        <ele>215.7</ele>
        <time>2019-12-03T13:31:03Z</time>
      </trkpt>
      <trkpt lat="47.17205" lon="5.00404">
        <ele>215.2</ele>
        <time>2019-12-03T13:31:12Z</time>
      </trkpt>
      <trkpt lat="47.17207" lon="5.00418">
        <ele>214.1</ele>
        <time>2019-12-03T13:31:20Z</time>
      </trkpt>
      <trkpt lat="47.17209" lon="5.00432">
        <ele>213.2</ele>
        <time>2019-12-03T13:31:29Z</time>
      </trkpt>
      <trkpt lat="47.1721" lon="5.00446">
        <ele>211</ele>
        <time>2019-12-03T13:31:39Z</time>
      </trkpt>
      <trkpt lat="47.17212" lon="5.00459">
        <ele>209.4</ele>
        <time>2019-12-03T13:31:48Z</time>
      </trkpt>
      <trkpt lat="47.17215" lon="5.00472">
        <ele>208.6</ele>
        <time>2019-12-03T13:31:57Z</time>
      </trkpt>
      <trkpt lat="47.17217" lon="5.00485">
        <ele>209</ele>
        <time>2019-12-03T13:32:05Z</time>
      </trkpt>
      <trkpt lat="47.1722" lon="5.00499">
        <ele>209.2</ele>
        <time>2019-12-03T13:32:14Z</time>
      </trkpt>
      <trkpt lat="47.17222" lon="5.00512">
        <ele>208.6</ele>
        <time>2019-12-03T13:32:22Z</time>
      </trkpt>
      <trkpt lat="47.17225" lon="5.00526">
        <ele>207.9</ele>
        <time>2019-12-03T13:32:31Z</time>
      </trkpt>
      <trkpt lat="47.17226" lon="5.00539">
        <ele>208.7</ele>
        <time>2019-12-03T13:32:39Z</time>
      </trkpt>
      <trkpt lat="47.17227" lon="5.00553">
        <ele>208.9</ele>
        <time>2019-12-03T13:32:47Z</time>
      </trkpt>
      <trkpt lat="47.17228" lon="5.00566">
        <ele>209.2</ele>
        <time>2019-12-03T13:32:55Z</time>
      </trkpt>
      <trkpt lat="47.1723" lon="5.0058">
        <ele>208.6</ele>
        <time>2019-12-03T13:33:04Z</time>
      </trkpt>
      <trkpt lat="47.17233" lon="5.00593">
        <ele>209.1</ele>
        <time>2019-12-03T13:33:12Z</time>
      </trkpt>
      <trkpt lat="47.17236" lon="5.00606">
        <ele>210.2</ele>
        <time>2019-12-03T13:33:20Z</time>
      </trkpt>
      <trkpt lat="47.17239" lon="5.00619">
        <ele>208.8</ele>
        <time>2019-12-03T13:33:29Z</time>
      </trkpt>
      <trkpt lat="47.17241" lon="5.00633">
        <ele>208.1</ele>
        <time>2019-12-03T13:33:38Z</time>
      </trkpt>
      <trkpt lat="47.17243" lon="5.00647">
        <ele>208.6</ele>
        <time>2019-12-03T13:33:46Z</time>
      </trkpt>
      <trkpt lat="47.17245" lon="5.00661">
        <ele>209.6</ele>
        <time>2019-12-03T13:33:54Z</time>
      </trkpt>
      <trkpt lat="47.17247" lon="5.00674">
        <ele>209</ele>
        <time>2019-12-03T13:34:03Z</time>
      </trkpt>
      <trkpt lat="47.17249" lon="5.00688">
        <ele>208.9</ele>
        <time>2019-12-03T13:34:13Z</time>
      </trkpt>
      <trkpt lat="47.17251" lon="5.00703">
        <ele>210.8</ele>
        <time>2019-12-03T13:34:22Z</time>
      </trkpt>
      <trkpt lat="47.17253" lon="5.00717">
        <ele>211.8</ele>
        <time>2019-12-03T13:34:30Z</time>
      </trkpt>
      <trkpt lat="47.17255" lon="5.00731">
        <ele>214</ele>
        <time>2019-12-03T13:34:38Z</time>
      </trkpt>
      <trkpt lat="47.17257" lon="5.00745">
        <ele>216</ele>
        <time>2019-12-03T13:34:46Z</time>
      </trkpt>
      <trkpt lat="47.17261" lon="5.00758">
        <ele>218</ele>
        <time>2019-12-03T13:34:56Z</time>
      </trkpt>
      <trkpt lat="47.17264" lon="5.00771">
        <ele>217.9</ele>
        <time>2019-12-03T13:35:04Z</time>
      </trkpt>
      <trkpt lat="47.17267" lon="5.00784">
        <ele>217.9</ele>
        <time>2019-12-03T13:35:11Z</time>
      </trkpt>
      <trkpt lat="47.17271" lon="5.00798">
        <ele>218.5</ele>
        <time>2019-12-03T13:35:19Z</time>
      </trkpt>
      <trkpt lat="47.17274" lon="5.0081">
        <ele>219.8</ele>
        <time>2019-12-03T13:35:26Z</time>
      </trkpt>
      <trkpt lat="47.17277" lon="5.00824">
        <ele>219.8</ele>
        <time>2019-12-03T13:35:35Z</time>
      </trkpt>
      <trkpt lat="47.17278" lon="5.00839">
        <ele>220.8</ele>
        <time>2019-12-03T13:35:45Z</time>
      </trkpt>
      <trkpt lat="47.17278" lon="5.00853">
        <ele>222.7</ele>
        <time>2019-12-03T13:35:54Z</time>
      </trkpt>
      <trkpt lat="47.17282" lon="5.00866">
        <ele>221.3</ele>
        <time>2019-12-03T13:36:03Z</time>
      </trkpt>
      <trkpt lat="47.17286" lon="5.0088">
        <ele>220.4</ele>
        <time>2019-12-03T13:36:11Z</time>
      </trkpt>
      <trkpt lat="47.17286" lon="5.00894">
        <ele>220.6</ele>
        <time>2019-12-03T13:36:18Z</time>
      </trkpt>
      <trkpt lat="47.17285" lon="5.00908">
        <ele>222.6</ele>
        <time>2019-12-03T13:36:25Z</time>
      </trkpt>
      <trkpt lat="47.17284" lon="5.00922">
        <ele>222.9</ele>
        <time>2019-12-03T13:36:36Z</time>
      </trkpt>
      <trkpt lat="47.17277" lon="5.00931">
        <ele>218.3</ele>
        <time>2019-12-03T13:37:30Z</time>
      </trkpt>
      <trkpt lat="47.17275" lon="5.00944">
        <ele>220.5</ele>
        <time>2019-12-03T13:38:30Z</time>
      </trkpt>
      <trkpt lat="47.17266" lon="5.00948">
        <ele>223</ele>
        <time>2019-12-03T13:38:53Z</time>
      </trkpt>
      <trkpt lat="47.17257" lon="5.00951">
        <ele>224.6</ele>
        <time>2019-12-03T13:38:59Z</time>
      </trkpt>
      <trkpt lat="47.17247" lon="5.00956">
        <ele>226.5</ele>
        <time>2019-12-03T13:39:08Z</time>
      </trkpt>
      <trkpt lat="47.17239" lon="5.00963">
        <ele>229</ele>
        <time>2019-12-03T13:39:13Z</time>
      </trkpt>
      <trkpt lat="47.1723" lon="5.00966">
        <ele>233.7</ele>
        <time>2019-12-03T13:39:27Z</time>
      </trkpt>
      <trkpt lat="47.17221" lon="5.00969">
        <ele>235.1</ele>
        <time>2019-12-03T13:39:51Z</time>
      </trkpt>
      <trkpt lat="47.17211" lon="5.00968">
        <ele>236.7</ele>
        <time>2019-12-03T13:40:01Z</time>
      </trkpt>
      <trkpt lat="47.17201" lon="5.00969">
        <ele>238.4</ele>
        <time>2019-12-03T13:40:07Z</time>
      </trkpt>
      <trkpt lat="47.17191" lon="5.00969">
        <ele>239.8</ele>
        <time>2019-12-03T13:40:14Z</time>
      </trkpt>
      <trkpt lat="47.17182" lon="5.00965">
        <ele>240.8</ele>
        <time>2019-12-03T13:40:32Z</time>
      </trkpt>
      <trkpt lat="47.17172" lon="5.00964">
        <ele>242.6</ele>
        <time>2019-12-03T13:40:51Z</time>
      </trkpt>
      <trkpt lat="47.17164" lon="5.00968">
        <ele>240.7</ele>
        <time>2019-12-03T13:41:01Z</time>
      </trkpt>
      <trkpt lat="47.17154" lon="5.0097">
        <ele>240.9</ele>
        <time>2019-12-03T13:41:09Z</time>
      </trkpt>
      <trkpt lat="47.17144" lon="5.00968">
        <ele>239.3</ele>
        <time>2019-12-03T13:41:30Z</time>
      </trkpt>
      <trkpt lat="47.17135" lon="5.00963">
        <ele>237.9</ele>
        <time>2019-12-03T13:41:35Z</time>
      </trkpt>
      <trkpt lat="47.17161" lon="5.00965">
        <ele>222</ele>
        <time>2019-12-03T13:41:54Z</time>
      </trkpt>
      <trkpt lat="47.17122" lon="5.00978">
        <ele>216.1</ele>
        <time>2019-12-03T13:41:55Z</time>
      </trkpt>
      <trkpt lat="47.17111" lon="5.00972">
        <ele>228.8</ele>
        <time>2019-12-03T13:42:02Z</time>
      </trkpt>
      <trkpt lat="47.171" lon="5.00964">
        <ele>227.6</ele>
        <time>2019-12-03T13:42:04Z</time>
      </trkpt>
      <trkpt lat="47.17091" lon="5.00963">
        <ele>227.2</ele>
        <time>2019-12-03T13:42:33Z</time>
      </trkpt>
      <trkpt lat="47.17081" lon="5.00963">
        <ele>227</ele>
        <time>2019-12-03T13:42:58Z</time>
      </trkpt>
      <trkpt lat="47.17072" lon="5.00964">
        <ele>227</ele>
        <time>2019-12-03T13:43:04Z</time>
      </trkpt>
      <trkpt lat="47.17063" lon="5.00965">
        <ele>227.5</ele>
        <time>2019-12-03T13:43:07Z</time>
      </trkpt>
      <trkpt lat="47.17052" lon="5.00967">
        <ele>228.6</ele>
        <time>2019-12-03T13:43:09Z</time>
      </trkpt>
      <trkpt lat="47.17041" lon="5.0097">
        <ele>230</ele>
        <time>2019-12-03T13:43:12Z</time>
      </trkpt>
      <trkpt lat="47.17032" lon="5.00972">
        <ele>231.7</ele>
        <time>2019-12-03T13:43:17Z</time>
      </trkpt>
      <trkpt lat="47.17023" lon="5.00974">
        <ele>232.9</ele>
        <time>2019-12-03T13:43:43Z</time>
      </trkpt>
      <trkpt lat="47.17014" lon="5.00978">
        <ele>230.7</ele>
        <time>2019-12-03T13:45:31Z</time>
      </trkpt>
      <trkpt lat="47.17005" lon="5.00983">
        <ele>230.9</ele>
        <time>2019-12-03T13:45:38Z</time>
      </trkpt>
      <trkpt lat="47.16996" lon="5.00981">
        <ele>232.4</ele>
        <time>2019-12-03T13:45:47Z</time>
      </trkpt>
      <trkpt lat="47.16988" lon="5.00989">
        <ele>234.9</ele>
        <time>2019-12-03T13:46:09Z</time>
      </trkpt>
      <trkpt lat="47.16989" lon="5.01004">
        <ele>235.2</ele>
        <time>2019-12-03T13:46:23Z</time>
      </trkpt>
      <trkpt lat="47.1699" lon="5.01019">
        <ele>235.2</ele>
        <time>2019-12-03T13:46:32Z</time>
      </trkpt>
      <trkpt lat="47.16991" lon="5.01032">
        <ele>235.1</ele>
        <time>2019-12-03T13:46:48Z</time>
      </trkpt>
      <trkpt lat="47.16985" lon="5.01042">
        <ele>233.3</ele>
        <time>2019-12-03T13:47:05Z</time>
      </trkpt>
      <trkpt lat="47.16981" lon="5.01054">
        <ele>233.4</ele>
        <time>2019-12-03T13:47:15Z</time>
      </trkpt>
      <trkpt lat="47.16976" lon="5.01067">
        <ele>232.7</ele>
        <time>2019-12-03T13:47:38Z</time>
      </trkpt>
      <trkpt lat="47.16971" lon="5.01082">
        <ele>232.9</ele>
        <time>2019-12-03T13:47:42Z</time>
      </trkpt>
      <trkpt lat="47.16967" lon="5.01097">
        <ele>232.9</ele>
        <time>2019-12-03T13:47:47Z</time>
      </trkpt>
      <trkpt lat="47.16967" lon="5.01111">
        <ele>233.5</ele>
        <time>2019-12-03T13:47:54Z</time>
      </trkpt>
      <trkpt lat="47.16963" lon="5.01124">
        <ele>235.2</ele>
        <time>2019-12-03T13:48:08Z</time>
      </trkpt>
      <trkpt lat="47.16954" lon="5.0112">
        <ele>234.3</ele>
        <time>2019-12-03T13:48:20Z</time>
      </trkpt>
      <trkpt lat="47.16944" lon="5.01117">
        <ele>234</ele>
        <time>2019-12-03T13:48:30Z</time>
      </trkpt>
      <trkpt lat="47.16936" lon="5.01125">
        <ele>234.3</ele>
        <time>2019-12-03T13:48:42Z</time>
      </trkpt>
      <trkpt lat="47.16933" lon="5.01137">
        <ele>233.4</ele>
        <time>2019-12-03T13:49:08Z</time>
      </trkpt>
      <trkpt lat="47.16933" lon="5.0115">
        <ele>233.1</ele>
        <time>2019-12-03T13:49:29Z</time>
      </trkpt>
      <trkpt lat="47.16931" lon="5.01165">
        <ele>231.7</ele>
        <time>2019-12-03T13:50:05Z</time>
      </trkpt>
      <trkpt lat="47.16927" lon="5.01177">
        <ele>231.6</ele>
        <time>2019-12-03T13:50:19Z</time>
      </trkpt>
      <trkpt lat="47.16925" lon="5.01192">
        <ele>233</ele>
        <time>2019-12-03T13:50:25Z</time>
      </trkpt>
      <trkpt lat="47.16924" lon="5.01206">
        <ele>234.6</ele>
        <time>2019-12-03T13:50:39Z</time>
      </trkpt>
      <trkpt lat="47.16923" lon="5.0122">
        <ele>236.2</ele>
        <time>2019-12-03T13:50:57Z</time>
      </trkpt>
      <trkpt lat="47.16925" lon="5.01233">
        <ele>236</ele>
        <time>2019-12-03T13:51:15Z</time>
      </trkpt>
      <trkpt lat="47.16928" lon="5.01247">
        <ele>237</ele>
        <time>2019-12-03T13:51:36Z</time>
      </trkpt>
      <trkpt lat="47.1693" lon="5.01262">
        <ele>237.4</ele>
        <time>2019-12-03T13:51:41Z</time>
      </trkpt>
      <trkpt lat="47.16931" lon="5.01276">
        <ele>239.7</ele>
        <time>2019-12-03T13:51:48Z</time>
      </trkpt>
      <trkpt lat="47.16929" lon="5.0129">
        <ele>240.9</ele>
        <time>2019-12-03T13:52:01Z</time>
      </trkpt>
      <trkpt lat="47.16924" lon="5.01301">
        <ele>241.2</ele>
        <time>2019-12-03T13:52:10Z</time>
      </trkpt>
      <trkpt lat="47.16919" lon="5.01313">
        <ele>242.4</ele>
        <time>2019-12-03T13:52:51Z</time>
      </trkpt>
      <trkpt lat="47.16912" lon="5.01323">
        <ele>244.2</ele>
        <time>2019-12-03T13:53:02Z</time>
      </trkpt>
      <trkpt lat="47.16907" lon="5.01336">
        <ele>244.4</ele>
        <time>2019-12-03T13:53:11Z</time>
      </trkpt>
      <trkpt lat="47.16902" lon="5.01348">
        <ele>244.9</ele>
        <time>2019-12-03T13:53:20Z</time>
      </trkpt>
      <trkpt lat="47.16898" lon="5.01361">
        <ele>246.1</ele>
        <time>2019-12-03T13:53:26Z</time>
      </trkpt>
      <trkpt lat="47.16895" lon="5.01374">
        <ele>246.1</ele>
        <time>2019-12-03T13:53:48Z</time>
      </trkpt>
      <trkpt lat="47.1689" lon="5.01385">
        <ele>245.9</ele>
        <time>2019-12-03T13:53:57Z</time>
      </trkpt>
      <trkpt lat="47.16888" lon="5.01398">
        <ele>245.7</ele>
        <time>2019-12-03T13:54:07Z</time>
      </trkpt>
      <trkpt lat="47.16886" lon="5.01411">
        <ele>244.1</ele>
        <time>2019-12-03T13:54:15Z</time>
      </trkpt>
      <trkpt lat="47.16881" lon="5.01423">
        <ele>243.1</ele>
        <time>2019-12-03T13:55:04Z</time>
      </trkpt>
      <trkpt lat="47.1688" lon="5.01436">
        <ele>242.9</ele>
        <time>2019-12-03T13:55:16Z</time>
      </trkpt>
      <trkpt lat="47.16879" lon="5.0145">
        <ele>242.8</ele>
        <time>2019-12-03T13:55:23Z</time>
      </trkpt>
      <trkpt lat="47.16878" lon="5.01465">
        <ele>243.6</ele>
        <time>2019-12-03T13:55:29Z</time>
      </trkpt>
      <trkpt lat="47.16875" lon="5.01478">
        <ele>245</ele>
        <time>2019-12-03T13:55:41Z</time>
      </trkpt>
      <trkpt lat="47.16873" lon="5.01492">
        <ele>244.7</ele>
        <time>2019-12-03T13:55:47Z</time>
      </trkpt>
      <trkpt lat="47.16869" lon="5.01506">
        <ele>242.9</ele>
        <time>2019-12-03T13:55:53Z</time>
      </trkpt>
      <trkpt lat="47.16864" lon="5.01516">
        <ele>242.4</ele>
        <time>2019-12-03T13:56:10Z</time>
      </trkpt>
      <trkpt lat="47.16862" lon="5.01531">
        <ele>242.6</ele>
        <time>2019-12-03T13:56:23Z</time>
      </trkpt>
      <trkpt lat="47.1686" lon="5.01544">
        <ele>243.2</ele>
        <time>2019-12-03T13:56:28Z</time>
      </trkpt>
      <trkpt lat="47.16862" lon="5.01557">
        <ele>243.6</ele>
        <time>2019-12-03T13:56:35Z</time>
      </trkpt>
      <trkpt lat="47.16863" lon="5.01571">
        <ele>244.3</ele>
        <time>2019-12-03T13:56:50Z</time>
      </trkpt>
      <trkpt lat="47.16864" lon="5.01585">
        <ele>244</ele>
        <time>2019-12-03T13:57:02Z</time>
      </trkpt>
      <trkpt lat="47.16864" lon="5.01599">
        <ele>244</ele>
        <time>2019-12-03T13:57:11Z</time>
      </trkpt>
      <trkpt lat="47.16865" lon="5.01612">
        <ele>244.8</ele>
        <time>2019-12-03T13:57:23Z</time>
      </trkpt>
      <trkpt lat="47.16866" lon="5.01626">
        <ele>244.5</ele>
        <time>2019-12-03T13:57:33Z</time>
      </trkpt>
      <trkpt lat="47.16867" lon="5.01639">
        <ele>244.7</ele>
        <time>2019-12-03T13:57:38Z</time>
      </trkpt>
      <trkpt lat="47.16868" lon="5.01653">
        <ele>244.8</ele>
        <time>2019-12-03T13:57:46Z</time>
      </trkpt>
      <trkpt lat="47.16867" lon="5.01667">
        <ele>245.6</ele>
        <time>2019-12-03T13:57:54Z</time>
      </trkpt>
      <trkpt lat="47.16868" lon="5.0168">
        <ele>244.3</ele>
        <time>2019-12-03T13:58:02Z</time>
      </trkpt>
      <trkpt lat="47.16872" lon="5.01693">
        <ele>243.5</ele>
        <time>2019-12-03T13:58:14Z</time>
      </trkpt>
      <trkpt lat="47.16871" lon="5.01707">
        <ele>243.2</ele>
        <time>2019-12-03T13:58:22Z</time>
      </trkpt>
      <trkpt lat="47.16871" lon="5.01721">
        <ele>242.9</ele>
        <time>2019-12-03T13:58:30Z</time>
      </trkpt>
      <trkpt lat="47.16873" lon="5.01735">
        <ele>242.8</ele>
        <time>2019-12-03T13:58:36Z</time>
      </trkpt>
      <trkpt lat="47.16874" lon="5.01749">
        <ele>242.1</ele>
        <time>2019-12-03T13:58:46Z</time>
      </trkpt>
      <trkpt lat="47.16875" lon="5.01762">
        <ele>242.9</ele>
        <time>2019-12-03T13:58:58Z</time>
      </trkpt>
      <trkpt lat="47.16873" lon="5.01776">
        <ele>243.4</ele>
        <time>2019-12-03T13:59:06Z</time>
      </trkpt>
      <trkpt lat="47.16872" lon="5.0179">
        <ele>242.3</ele>
        <time>2019-12-03T13:59:16Z</time>
      </trkpt>
      <trkpt lat="47.16874" lon="5.01804">
        <ele>242.5</ele>
        <time>2019-12-03T13:59:30Z</time>
      </trkpt>
      <trkpt lat="47.16876" lon="5.01818">
        <ele>242.9</ele>
        <time>2019-12-03T13:59:35Z</time>
      </trkpt>
      <trkpt lat="47.16876" lon="5.01835">
        <ele>243.1</ele>
        <time>2019-12-03T13:59:43Z</time>
      </trkpt>
      <trkpt lat="47.16876" lon="5.0185">
        <ele>243.2</ele>
        <time>2019-12-03T13:59:54Z</time>
      </trkpt>
      <trkpt lat="47.16877" lon="5.01864">
        <ele>243.9</ele>
        <time>2019-12-03T14:00:03Z</time>
      </trkpt>
      <trkpt lat="47.16878" lon="5.01877">
        <ele>241.1</ele>
        <time>2019-12-03T14:01:10Z</time>
      </trkpt>
      <trkpt lat="47.16869" lon="5.01881">
        <ele>239.8</ele>
        <time>2019-12-03T14:01:23Z</time>
      </trkpt>
      <trkpt lat="47.16877" lon="5.01888">
        <ele>241</ele>
        <time>2019-12-03T14:01:44Z</time>
      </trkpt>
      <trkpt lat="47.16886" lon="5.01888">
        <ele>240.8</ele>
        <time>2019-12-03T14:01:54Z</time>
      </trkpt>
      <trkpt lat="47.16897" lon="5.01889">
        <ele>239.2</ele>
        <time>2019-12-03T14:02:02Z</time>
      </trkpt>
      <trkpt lat="47.16906" lon="5.0189">
        <ele>238</ele>
        <time>2019-12-03T14:02:08Z</time>
      </trkpt>
      <trkpt lat="47.16917" lon="5.0189">
        <ele>237.4</ele>
        <time>2019-12-03T14:02:19Z</time>
      </trkpt>
      <trkpt lat="47.16927" lon="5.01894">
        <ele>238</ele>
        <time>2019-12-03T14:02:35Z</time>
      </trkpt>
      <trkpt lat="47.16936" lon="5.01897">
        <ele>238</ele>
        <time>2019-12-03T14:02:45Z</time>
      </trkpt>
      <trkpt lat="47.16946" lon="5.01898">
        <ele>238.2</ele>
        <time>2019-12-03T14:02:53Z</time>
      </trkpt>
      <trkpt lat="47.16956" lon="5.019">
        <ele>238.1</ele>
        <time>2019-12-03T14:02:57Z</time>
      </trkpt>
      <trkpt lat="47.16965" lon="5.01902">
        <ele>238.3</ele>
        <time>2019-12-03T14:03:03Z</time>
      </trkpt>
      <trkpt lat="47.16976" lon="5.01904">
        <ele>238</ele>
        <time>2019-12-03T14:03:13Z</time>
      </trkpt>
      <trkpt lat="47.16985" lon="5.01904">
        <ele>241.3</ele>
        <time>2019-12-03T14:03:26Z</time>
      </trkpt>
      <trkpt lat="47.16994" lon="5.01907">
        <ele>241.3</ele>
        <time>2019-12-03T14:03:33Z</time>
      </trkpt>
      <trkpt lat="47.17003" lon="5.01909">
        <ele>242</ele>
        <time>2019-12-03T14:03:46Z</time>
      </trkpt>
      <trkpt lat="47.17013" lon="5.0191">
        <ele>243.3</ele>
        <time>2019-12-03T14:04:01Z</time>
      </trkpt>
      <trkpt lat="47.17022" lon="5.01909">
        <ele>243.7</ele>
        <time>2019-12-03T14:04:07Z</time>
      </trkpt>
      <trkpt lat="47.17032" lon="5.0191">
        <ele>243.6</ele>
        <time>2019-12-03T14:04:14Z</time>
      </trkpt>
      <trkpt lat="47.17042" lon="5.01911">
        <ele>244.3</ele>
        <time>2019-12-03T14:04:20Z</time>
      </trkpt>
      <trkpt lat="47.17051" lon="5.01913">
        <ele>244</ele>
        <time>2019-12-03T14:04:28Z</time>
      </trkpt>
      <trkpt lat="47.17061" lon="5.01914">
        <ele>240.7</ele>
        <time>2019-12-03T14:04:43Z</time>
      </trkpt>
      <trkpt lat="47.17071" lon="5.01916">
        <ele>241.2</ele>
        <time>2019-12-03T14:04:51Z</time>
      </trkpt>
      <trkpt lat="47.1708" lon="5.01917">
        <ele>241.6</ele>
        <time>2019-12-03T14:04:58Z</time>
      </trkpt>
      <trkpt lat="47.1709" lon="5.01919">
        <ele>242.3</ele>
        <time>2019-12-03T14:05:03Z</time>
      </trkpt>
      <trkpt lat="47.17099" lon="5.01922">
        <ele>242.8</ele>
        <time>2019-12-03T14:05:20Z</time>
      </trkpt>
      <trkpt lat="47.17108" lon="5.01923">
        <ele>245.2</ele>
        <time>2019-12-03T14:05:28Z</time>
      </trkpt>
      <trkpt lat="47.17118" lon="5.01924">
        <ele>247.4</ele>
        <time>2019-12-03T14:05:36Z</time>
      </trkpt>
      <trkpt lat="47.17128" lon="5.01925">
        <ele>246</ele>
        <time>2019-12-03T14:05:45Z</time>
      </trkpt>
      <trkpt lat="47.17137" lon="5.01927">
        <ele>245</ele>
        <time>2019-12-03T14:05:51Z</time>
      </trkpt>
      <trkpt lat="47.17146" lon="5.01928">
        <ele>244.4</ele>
        <time>2019-12-03T14:06:03Z</time>
      </trkpt>
      <trkpt lat="47.17156" lon="5.0193">
        <ele>243.7</ele>
        <time>2019-12-03T14:06:12Z</time>
      </trkpt>
      <trkpt lat="47.17165" lon="5.01931">
        <ele>244.2</ele>
        <time>2019-12-03T14:06:25Z</time>
      </trkpt>
      <trkpt lat="47.17175" lon="5.01932">
        <ele>244.7</ele>
        <time>2019-12-03T14:06:38Z</time>
      </trkpt>
      <trkpt lat="47.17184" lon="5.01934">
        <ele>244.1</ele>
        <time>2019-12-03T14:06:45Z</time>
      </trkpt>
      <trkpt lat="47.17193" lon="5.01937">
        <ele>243.1</ele>
        <time>2019-12-03T14:06:51Z</time>
      </trkpt>
      <trkpt lat="47.17202" lon="5.01941">
        <ele>243.9</ele>
        <time>2019-12-03T14:06:57Z</time>
      </trkpt>
      <trkpt lat="47.17212" lon="5.01942">
        <ele>247</ele>
        <time>2019-12-03T14:07:06Z</time>
      </trkpt>
      <trkpt lat="47.17221" lon="5.01942">
        <ele>248.6</ele>
        <time>2019-12-03T14:07:12Z</time>
      </trkpt>
      <trkpt lat="47.1723" lon="5.01942">
        <ele>248.7</ele>
        <time>2019-12-03T14:07:22Z</time>
      </trkpt>
      <trkpt lat="47.1724" lon="5.01944">
        <ele>247.5</ele>
        <time>2019-12-03T14:07:36Z</time>
      </trkpt>
      <trkpt lat="47.17249" lon="5.01943">
        <ele>247</ele>
        <time>2019-12-03T14:07:45Z</time>
      </trkpt>
      <trkpt lat="47.17259" lon="5.01945">
        <ele>249</ele>
        <time>2019-12-03T14:07:52Z</time>
      </trkpt>
      <trkpt lat="47.17269" lon="5.01947">
        <ele>250.7</ele>
        <time>2019-12-03T14:07:58Z</time>
      </trkpt>
      <trkpt lat="47.17278" lon="5.0195">
        <ele>251.4</ele>
        <time>2019-12-03T14:08:03Z</time>
      </trkpt>
      <trkpt lat="47.17288" lon="5.01952">
        <ele>250.2</ele>
        <time>2019-12-03T14:08:11Z</time>
      </trkpt>
      <trkpt lat="47.17297" lon="5.01953">
        <ele>248.4</ele>
        <time>2019-12-03T14:08:21Z</time>
      </trkpt>
      <trkpt lat="47.17306" lon="5.01955">
        <ele>245.2</ele>
        <time>2019-12-03T14:08:33Z</time>
      </trkpt>
      <trkpt lat="47.17316" lon="5.01953">
        <ele>238</ele>
        <time>2019-12-03T14:12:34Z</time>
      </trkpt>
      <trkpt lat="47.17324" lon="5.01957">
        <ele>234.5</ele>
        <time>2019-12-03T14:12:47Z</time>
      </trkpt>
      <trkpt lat="47.17333" lon="5.01961">
        <ele>232</ele>
        <time>2019-12-03T14:12:58Z</time>
      </trkpt>
      <trkpt lat="47.17343" lon="5.01962">
        <ele>233.5</ele>
        <time>2019-12-03T14:13:12Z</time>
      </trkpt>
      <trkpt lat="47.17354" lon="5.01964">
        <ele>235.5</ele>
        <time>2019-12-03T14:13:16Z</time>
      </trkpt>
      <trkpt lat="47.17363" lon="5.01968">
        <ele>236.8</ele>
        <time>2019-12-03T14:13:23Z</time>
      </trkpt>
      <trkpt lat="47.17373" lon="5.01969">
        <ele>237.8</ele>
        <time>2019-12-03T14:13:32Z</time>
      </trkpt>
      <trkpt lat="47.17383" lon="5.01968">
        <ele>237.6</ele>
        <time>2019-12-03T14:13:40Z</time>
      </trkpt>
      <trkpt lat="47.17392" lon="5.01971">
        <ele>238.8</ele>
        <time>2019-12-03T14:13:50Z</time>
      </trkpt>
      <trkpt lat="47.17402" lon="5.01976">
        <ele>240.6</ele>
        <time>2019-12-03T14:13:58Z</time>
      </trkpt>
      <trkpt lat="47.17412" lon="5.01977">
        <ele>243.8</ele>
        <time>2019-12-03T14:14:05Z</time>
      </trkpt>
      <trkpt lat="47.17421" lon="5.01975">
        <ele>244</ele>
        <time>2019-12-03T14:14:11Z</time>
      </trkpt>
      <trkpt lat="47.17431" lon="5.01974">
        <ele>243.5</ele>
        <time>2019-12-03T14:14:20Z</time>
      </trkpt>
      <trkpt lat="47.1744" lon="5.01975">
        <ele>241.1</ele>
        <time>2019-12-03T14:14:29Z</time>
      </trkpt>
      <trkpt lat="47.17449" lon="5.01978">
        <ele>241.1</ele>
        <time>2019-12-03T14:14:42Z</time>
      </trkpt>
      <trkpt lat="47.1746" lon="5.01979">
        <ele>241.6</ele>
        <time>2019-12-03T14:14:47Z</time>
      </trkpt>
      <trkpt lat="47.1747" lon="5.01979">
        <ele>242.4</ele>
        <time>2019-12-03T14:14:53Z</time>
      </trkpt>
      <trkpt lat="47.17479" lon="5.01981">
        <ele>244.3</ele>
        <time>2019-12-03T14:15:03Z</time>
      </trkpt>
      <trkpt lat="47.17488" lon="5.01984">
        <ele>244.4</ele>
        <time>2019-12-03T14:15:20Z</time>
      </trkpt>
      <trkpt lat="47.17498" lon="5.01987">
        <ele>243.7</ele>
        <time>2019-12-03T14:15:28Z</time>
      </trkpt>
      <trkpt lat="47.17506" lon="5.01991">
        <ele>242.2</ele>
        <time>2019-12-03T14:15:34Z</time>
      </trkpt>
      <trkpt lat="47.17516" lon="5.01993">
        <ele>241.3</ele>
        <time>2019-12-03T14:15:41Z</time>
      </trkpt>
      <trkpt lat="47.17526" lon="5.01996">
        <ele>238.5</ele>
        <time>2019-12-03T14:15:54Z</time>
      </trkpt>
      <trkpt lat="47.17535" lon="5.02">
        <ele>240.6</ele>
        <time>2019-12-03T14:16:01Z</time>
      </trkpt>
      <trkpt lat="47.17543" lon="5.02004">
        <ele>241.3</ele>
        <time>2019-12-03T14:16:13Z</time>
      </trkpt>
      <trkpt lat="47.17553" lon="5.02004">
        <ele>241.9</ele>
        <time>2019-12-03T14:16:26Z</time>
      </trkpt>
      <trkpt lat="47.17562" lon="5.02003">
        <ele>242</ele>
        <time>2019-12-03T14:16:33Z</time>
      </trkpt>
      <trkpt lat="47.17572" lon="5.02002">
        <ele>241.7</ele>
        <time>2019-12-03T14:16:41Z</time>
      </trkpt>
      <trkpt lat="47.17581" lon="5.02001">
        <ele>241.2</ele>
        <time>2019-12-03T14:16:45Z</time>
      </trkpt>
      <trkpt lat="47.1759" lon="5.02001">
        <ele>241.7</ele>
        <time>2019-12-03T14:16:52Z</time>
      </trkpt>
      <trkpt lat="47.176" lon="5.02002">
        <ele>239.8</ele>
        <time>2019-12-03T14:17:00Z</time>
      </trkpt>
      <trkpt lat="47.17609" lon="5.02004">
        <ele>236.9</ele>
        <time>2019-12-03T14:17:10Z</time>
      </trkpt>
      <trkpt lat="47.17618" lon="5.02009">
        <ele>238.4</ele>
        <time>2019-12-03T14:17:22Z</time>
      </trkpt>
      <trkpt lat="47.17628" lon="5.02012">
        <ele>241.3</ele>
        <time>2019-12-03T14:17:36Z</time>
      </trkpt>
      <trkpt lat="47.17637" lon="5.02014">
        <ele>243.1</ele>
        <time>2019-12-03T14:17:42Z</time>
      </trkpt>
      <trkpt lat="47.17646" lon="5.02016">
        <ele>245.3</ele>
        <time>2019-12-03T14:17:49Z</time>
      </trkpt>
      <trkpt lat="47.17656" lon="5.02016">
        <ele>246.1</ele>
        <time>2019-12-03T14:17:56Z</time>
      </trkpt>
      <trkpt lat="47.17666" lon="5.02017">
        <ele>246.2</ele>
        <time>2019-12-03T14:18:07Z</time>
      </trkpt>
      <trkpt lat="47.17676" lon="5.02018">
        <ele>245.9</ele>
        <time>2019-12-03T14:18:15Z</time>
      </trkpt>
      <trkpt lat="47.17685" lon="5.02021">
        <ele>243.2</ele>
        <time>2019-12-03T14:18:23Z</time>
      </trkpt>
      <trkpt lat="47.17694" lon="5.02026">
        <ele>240.8</ele>
        <time>2019-12-03T14:18:30Z</time>
      </trkpt>
      <trkpt lat="47.17704" lon="5.0203">
        <ele>239.4</ele>
        <time>2019-12-03T14:18:37Z</time>
      </trkpt>
      <trkpt lat="47.17715" lon="5.02033">
        <ele>237.9</ele>
        <time>2019-12-03T14:18:44Z</time>
      </trkpt>
      <trkpt lat="47.17724" lon="5.02035">
        <ele>236.1</ele>
        <time>2019-12-03T14:18:50Z</time>
      </trkpt>
      <trkpt lat="47.17733" lon="5.02034">
        <ele>233.8</ele>
        <time>2019-12-03T14:18:58Z</time>
      </trkpt>
      <trkpt lat="47.17742" lon="5.02034">
        <ele>231.8</ele>
        <time>2019-12-03T14:19:07Z</time>
      </trkpt>
      <trkpt lat="47.17752" lon="5.02033">
        <ele>228.9</ele>
        <time>2019-12-03T14:19:16Z</time>
      </trkpt>
      <trkpt lat="47.17762" lon="5.02033">
        <ele>225.7</ele>
        <time>2019-12-03T14:19:27Z</time>
      </trkpt>
      <trkpt lat="47.17771" lon="5.02035">
        <ele>225.9</ele>
        <time>2019-12-03T14:19:36Z</time>
      </trkpt>
      <trkpt lat="47.17781" lon="5.02037">
        <ele>225</ele>
        <time>2019-12-03T14:19:45Z</time>
      </trkpt>
      <trkpt lat="47.1779" lon="5.02036">
        <ele>223.3</ele>
        <time>2019-12-03T14:20:29Z</time>
      </trkpt>
      <trkpt lat="47.178" lon="5.02036">
        <ele>222.7</ele>
        <time>2019-12-03T14:20:37Z</time>
      </trkpt>
      <trkpt lat="47.1781" lon="5.02038">
        <ele>223.4</ele>
        <time>2019-12-03T14:20:45Z</time>
      </trkpt>
      <trkpt lat="47.17819" lon="5.02041">
        <ele>223.4</ele>
        <time>2019-12-03T14:20:53Z</time>
      </trkpt>
      <trkpt lat="47.17828" lon="5.02044">
        <ele>224.3</ele>
        <time>2019-12-03T14:21:02Z</time>
      </trkpt>
      <trkpt lat="47.17837" lon="5.02046">
        <ele>224.5</ele>
        <time>2019-12-03T14:21:11Z</time>
      </trkpt>
      <trkpt lat="47.17847" lon="5.02048">
        <ele>224.4</ele>
        <time>2019-12-03T14:21:20Z</time>
      </trkpt>
      <trkpt lat="47.17856" lon="5.02051">
        <ele>224.7</ele>
        <time>2019-12-03T14:21:29Z</time>
      </trkpt>
      <trkpt lat="47.17866" lon="5.02053">
        <ele>225.5</ele>
        <time>2019-12-03T14:21:38Z</time>
      </trkpt>
      <trkpt lat="47.17875" lon="5.02056">
        <ele>225.4</ele>
        <time>2019-12-03T14:21:46Z</time>
      </trkpt>
      <trkpt lat="47.17884" lon="5.02058">
        <ele>226.3</ele>
        <time>2019-12-03T14:21:54Z</time>
      </trkpt>
      <trkpt lat="47.17894" lon="5.02061">
        <ele>224.8</ele>
        <time>2019-12-03T14:22:03Z</time>
      </trkpt>
      <trkpt lat="47.17904" lon="5.02062">
        <ele>222.4</ele>
        <time>2019-12-03T14:22:13Z</time>
      </trkpt>
      <trkpt lat="47.17913" lon="5.02064">
        <ele>221.4</ele>
        <time>2019-12-03T14:22:22Z</time>
      </trkpt>
      <trkpt lat="47.17922" lon="5.02065">
        <ele>221.1</ele>
        <time>2019-12-03T14:22:30Z</time>
      </trkpt>
      <trkpt lat="47.17931" lon="5.02066">
        <ele>221.3</ele>
        <time>2019-12-03T14:22:38Z</time>
      </trkpt>
      <trkpt lat="47.17941" lon="5.02067">
        <ele>221.6</ele>
        <time>2019-12-03T14:22:46Z</time>
      </trkpt>
      <trkpt lat="47.1795" lon="5.02068">
        <ele>221.4</ele>
        <time>2019-12-03T14:22:54Z</time>
      </trkpt>
      <trkpt lat="47.17959" lon="5.0207">
        <ele>219.5</ele>
        <time>2019-12-03T14:23:03Z</time>
      </trkpt>
      <trkpt lat="47.17968" lon="5.0207">
        <ele>218.4</ele>
        <time>2019-12-03T14:23:12Z</time>
      </trkpt>
      <trkpt lat="47.17978" lon="5.02072">
        <ele>217.4</ele>
        <time>2019-12-03T14:23:21Z</time>
      </trkpt>
      <trkpt lat="47.17987" lon="5.02075">
        <ele>215.6</ele>
        <time>2019-12-03T14:23:30Z</time>
      </trkpt>
      <trkpt lat="47.17996" lon="5.02076">
        <ele>214.7</ele>
        <time>2019-12-03T14:23:40Z</time>
      </trkpt>
      <trkpt lat="47.18006" lon="5.02078">
        <ele>213.6</ele>
        <time>2019-12-03T14:23:50Z</time>
      </trkpt>
      <trkpt lat="47.18015" lon="5.02078">
        <ele>213.7</ele>
        <time>2019-12-03T14:23:59Z</time>
      </trkpt>
      <trkpt lat="47.18025" lon="5.02078">
        <ele>213.8</ele>
        <time>2019-12-03T14:24:07Z</time>
      </trkpt>
      <trkpt lat="47.18034" lon="5.02079">
        <ele>213.9</ele>
        <time>2019-12-03T14:24:16Z</time>
      </trkpt>
      <trkpt lat="47.18043" lon="5.02081">
        <ele>214.2</ele>
        <time>2019-12-03T14:24:24Z</time>
      </trkpt>
      <trkpt lat="47.18053" lon="5.02085">
        <ele>214.1</ele>
        <time>2019-12-03T14:24:33Z</time>
      </trkpt>
      <trkpt lat="47.18062" lon="5.02087">
        <ele>214.1</ele>
        <time>2019-12-03T14:24:42Z</time>
      </trkpt>
      <trkpt lat="47.18072" lon="5.02089">
        <ele>213.8</ele>
        <time>2019-12-03T14:24:51Z</time>
      </trkpt>
      <trkpt lat="47.18081" lon="5.0209">
        <ele>214.6</ele>
        <time>2019-12-03T14:25:00Z</time>
      </trkpt>
      <trkpt lat="47.18091" lon="5.02091">
        <ele>215.4</ele>
        <time>2019-12-03T14:25:09Z</time>
      </trkpt>
      <trkpt lat="47.18101" lon="5.02092">
        <ele>215</ele>
        <time>2019-12-03T14:25:19Z</time>
      </trkpt>
      <trkpt lat="47.1811" lon="5.02093">
        <ele>214.6</ele>
        <time>2019-12-03T14:25:29Z</time>
      </trkpt>
      <trkpt lat="47.1812" lon="5.02094">
        <ele>215</ele>
        <time>2019-12-03T14:25:39Z</time>
      </trkpt>
      <trkpt lat="47.18129" lon="5.02098">
        <ele>214.6</ele>
        <time>2019-12-03T14:26:59Z</time>
      </trkpt>
      <trkpt lat="47.18138" lon="5.02099">
        <ele>214.8</ele>
        <time>2019-12-03T14:27:09Z</time>
      </trkpt>
      <trkpt lat="47.18147" lon="5.021">
        <ele>215.4</ele>
        <time>2019-12-03T14:27:17Z</time>
      </trkpt>
      <trkpt lat="47.18157" lon="5.02101">
        <ele>215.6</ele>
        <time>2019-12-03T14:27:26Z</time>
      </trkpt>
      <trkpt lat="47.18166" lon="5.02102">
        <ele>215.9</ele>
        <time>2019-12-03T14:27:35Z</time>
      </trkpt>
      <trkpt lat="47.18176" lon="5.02103">
        <ele>215.6</ele>
        <time>2019-12-03T14:27:45Z</time>
      </trkpt>
      <trkpt lat="47.18186" lon="5.02105">
        <ele>215.1</ele>
        <time>2019-12-03T14:27:55Z</time>
      </trkpt>
      <trkpt lat="47.18195" lon="5.02107">
        <ele>215.4</ele>
        <time>2019-12-03T14:28:04Z</time>
      </trkpt>
      <trkpt lat="47.18205" lon="5.02109">
        <ele>215.7</ele>
        <time>2019-12-03T14:28:14Z</time>
      </trkpt>
      <trkpt lat="47.18215" lon="5.02111">
        <ele>216.3</ele>
        <time>2019-12-03T14:28:24Z</time>
      </trkpt>
      <trkpt lat="47.18225" lon="5.02113">
        <ele>217.3</ele>
        <time>2019-12-03T14:28:33Z</time>
      </trkpt>
      <trkpt lat="47.18234" lon="5.02114">
        <ele>220.2</ele>
        <time>2019-12-03T14:28:45Z</time>
      </trkpt>
      <trkpt lat="47.18243" lon="5.02117">
        <ele>220.3</ele>
        <time>2019-12-03T14:28:58Z</time>
      </trkpt>
      <trkpt lat="47.18252" lon="5.02119">
        <ele>219.4</ele>
        <time>2019-12-03T14:30:01Z</time>
      </trkpt>
      <trkpt lat="47.18262" lon="5.02119">
        <ele>219.6</ele>
        <time>2019-12-03T14:30:09Z</time>
      </trkpt>
      <trkpt lat="47.18271" lon="5.02121">
        <ele>220.9</ele>
        <time>2019-12-03T14:30:22Z</time>
      </trkpt>
      <trkpt lat="47.18281" lon="5.02123">
        <ele>221.5</ele>
        <time>2019-12-03T14:30:29Z</time>
      </trkpt>
      <trkpt lat="47.1829" lon="5.02124">
        <ele>222.1</ele>
        <time>2019-12-03T14:30:36Z</time>
      </trkpt>
      <trkpt lat="47.18299" lon="5.02125">
        <ele>222.4</ele>
        <time>2019-12-03T14:30:46Z</time>
      </trkpt>
      <trkpt lat="47.18309" lon="5.02126">
        <ele>222.6</ele>
        <time>2019-12-03T14:30:56Z</time>
      </trkpt>
      <trkpt lat="47.18318" lon="5.02127">
        <ele>223.1</ele>
        <time>2019-12-03T14:31:06Z</time>
      </trkpt>
      <trkpt lat="47.18328" lon="5.02128">
        <ele>224.6</ele>
        <time>2019-12-03T14:31:16Z</time>
      </trkpt>
      <trkpt lat="47.18337" lon="5.0213">
        <ele>224.6</ele>
        <time>2019-12-03T14:31:25Z</time>
      </trkpt>
      <trkpt lat="47.18347" lon="5.02131">
        <ele>224.6</ele>
        <time>2019-12-03T14:31:34Z</time>
      </trkpt>
      <trkpt lat="47.18356" lon="5.02132">
        <ele>225.3</ele>
        <time>2019-12-03T14:31:43Z</time>
      </trkpt>
      <trkpt lat="47.18366" lon="5.02133">
        <ele>225.8</ele>
        <time>2019-12-03T14:31:51Z</time>
      </trkpt>
      <trkpt lat="47.18375" lon="5.02134">
        <ele>226.1</ele>
        <time>2019-12-03T14:31:59Z</time>
      </trkpt>
      <trkpt lat="47.18384" lon="5.02135">
        <ele>227.4</ele>
        <time>2019-12-03T14:32:06Z</time>
      </trkpt>
      <trkpt lat="47.18394" lon="5.02137">
        <ele>227.4</ele>
        <time>2019-12-03T14:32:14Z</time>
      </trkpt>
      <trkpt lat="47.18403" lon="5.02139">
        <ele>228.1</ele>
        <time>2019-12-03T14:32:22Z</time>
      </trkpt>
      <trkpt lat="47.18413" lon="5.02141">
        <ele>228.8</ele>
        <time>2019-12-03T14:32:31Z</time>
      </trkpt>
      <trkpt lat="47.18422" lon="5.02142">
        <ele>229.3</ele>
        <time>2019-12-03T14:32:39Z</time>
      </trkpt>
      <trkpt lat="47.18431" lon="5.02144">
        <ele>229.1</ele>
        <time>2019-12-03T14:32:47Z</time>
      </trkpt>
      <trkpt lat="47.18441" lon="5.02147">
        <ele>227.9</ele>
        <time>2019-12-03T14:32:56Z</time>
      </trkpt>
      <trkpt lat="47.1845" lon="5.02149">
        <ele>227.1</ele>
        <time>2019-12-03T14:33:04Z</time>
      </trkpt>
      <trkpt lat="47.1846" lon="5.02151">
        <ele>226.4</ele>
        <time>2019-12-03T14:33:13Z</time>
      </trkpt>
      <trkpt lat="47.1847" lon="5.02153">
        <ele>227.2</ele>
        <time>2019-12-03T14:33:22Z</time>
      </trkpt>
      <trkpt lat="47.18479" lon="5.02154">
        <ele>226.8</ele>
        <time>2019-12-03T14:33:32Z</time>
      </trkpt>
      <trkpt lat="47.18485" lon="5.02145">
        <ele>229</ele>
        <time>2019-12-03T14:45:50Z</time>
      </trkpt>
      <trkpt lat="47.18491" lon="5.02134">
        <ele>230.4</ele>
        <time>2019-12-03T14:46:01Z</time>
      </trkpt>
      <trkpt lat="47.18495" lon="5.0212">
        <ele>228.5</ele>
        <time>2019-12-03T14:46:11Z</time>
      </trkpt>
      <trkpt lat="47.185" lon="5.02108">
        <ele>227.1</ele>
        <time>2019-12-03T14:46:19Z</time>
      </trkpt>
      <trkpt lat="47.18506" lon="5.02097">
        <ele>227.6</ele>
        <time>2019-12-03T14:46:27Z</time>
      </trkpt>
      <trkpt lat="47.18511" lon="5.02084">
        <ele>228.7</ele>
        <time>2019-12-03T14:46:36Z</time>
      </trkpt>
      <trkpt lat="47.18515" lon="5.02071">
        <ele>229.3</ele>
        <time>2019-12-03T14:46:44Z</time>
      </trkpt>
      <trkpt lat="47.1852" lon="5.02059">
        <ele>229.8</ele>
        <time>2019-12-03T14:46:52Z</time>
      </trkpt>
      <trkpt lat="47.18525" lon="5.02048">
        <ele>229.1</ele>
        <time>2019-12-03T14:47:00Z</time>
      </trkpt>
      <trkpt lat="47.18531" lon="5.02036">
        <ele>230.6</ele>
        <time>2019-12-03T14:47:08Z</time>
      </trkpt>
      <trkpt lat="47.18536" lon="5.02025">
        <ele>231.3</ele>
        <time>2019-12-03T14:47:16Z</time>
      </trkpt>
      <trkpt lat="47.18541" lon="5.02014">
        <ele>231.7</ele>
        <time>2019-12-03T14:47:24Z</time>
      </trkpt>
      <trkpt lat="47.18546" lon="5.02003">
        <ele>231.1</ele>
        <time>2019-12-03T14:47:32Z</time>
      </trkpt>
      <trkpt lat="47.18551" lon="5.0199">
        <ele>232.5</ele>
        <time>2019-12-03T14:47:41Z</time>
      </trkpt>
      <trkpt lat="47.18558" lon="5.0198">
        <ele>232.1</ele>
        <time>2019-12-03T14:47:48Z</time>
      </trkpt>
      <trkpt lat="47.18564" lon="5.0197">
        <ele>232.2</ele>
        <time>2019-12-03T14:47:55Z</time>
      </trkpt>
      <trkpt lat="47.18569" lon="5.01959">
        <ele>233</ele>
        <time>2019-12-03T14:48:03Z</time>
      </trkpt>
      <trkpt lat="47.18575" lon="5.01947">
        <ele>233.5</ele>
        <time>2019-12-03T14:48:11Z</time>
      </trkpt>
      <trkpt lat="47.18579" lon="5.01935">
        <ele>232.1</ele>
        <time>2019-12-03T14:48:19Z</time>
      </trkpt>
      <trkpt lat="47.18584" lon="5.01923">
        <ele>230.7</ele>
        <time>2019-12-03T14:48:27Z</time>
      </trkpt>
      <trkpt lat="47.18589" lon="5.01911">
        <ele>227.9</ele>
        <time>2019-12-03T14:48:35Z</time>
      </trkpt>
      <trkpt lat="47.18593" lon="5.01899">
        <ele>225.2</ele>
        <time>2019-12-03T14:48:43Z</time>
      </trkpt>
      <trkpt lat="47.18598" lon="5.01886">
        <ele>223</ele>
        <time>2019-12-03T14:48:53Z</time>
      </trkpt>
      <trkpt lat="47.18602" lon="5.01874">
        <ele>222.2</ele>
        <time>2019-12-03T14:49:02Z</time>
      </trkpt>
      <trkpt lat="47.18607" lon="5.01861">
        <ele>222.4</ele>
        <time>2019-12-03T14:49:11Z</time>
      </trkpt>
      <trkpt lat="47.18613" lon="5.01851">
        <ele>222.9</ele>
        <time>2019-12-03T14:49:19Z</time>
      </trkpt>
      <trkpt lat="47.18618" lon="5.01838">
        <ele>223.7</ele>
        <time>2019-12-03T14:49:28Z</time>
      </trkpt>
      <trkpt lat="47.18622" lon="5.01825">
        <ele>224.8</ele>
        <time>2019-12-03T14:49:37Z</time>
      </trkpt>
      <trkpt lat="47.18626" lon="5.01812">
        <ele>223.5</ele>
        <time>2019-12-03T14:49:46Z</time>
      </trkpt>
      <trkpt lat="47.1863" lon="5.01799">
        <ele>224.2</ele>
        <time>2019-12-03T14:49:54Z</time>
      </trkpt>
      <trkpt lat="47.18633" lon="5.01786">
        <ele>223.9</ele>
        <time>2019-12-03T14:50:02Z</time>
      </trkpt>
      <trkpt lat="47.18636" lon="5.01772">
        <ele>223.4</ele>
        <time>2019-12-03T14:50:11Z</time>
      </trkpt>
      <trkpt lat="47.18639" lon="5.01759">
        <ele>222.5</ele>
        <time>2019-12-03T14:50:20Z</time>
      </trkpt>
      <trkpt lat="47.18643" lon="5.01747">
        <ele>222.9</ele>
        <time>2019-12-03T14:50:28Z</time>
      </trkpt>
      <trkpt lat="47.18648" lon="5.01735">
        <ele>223.5</ele>
        <time>2019-12-03T14:50:36Z</time>
      </trkpt>
      <trkpt lat="47.18652" lon="5.01723">
        <ele>224.5</ele>
        <time>2019-12-03T14:50:44Z</time>
      </trkpt>
      <trkpt lat="47.18656" lon="5.01709">
        <ele>225</ele>
        <time>2019-12-03T14:50:52Z</time>
      </trkpt>
      <trkpt lat="47.18659" lon="5.01697">
        <ele>224.3</ele>
        <time>2019-12-03T14:51:00Z</time>
      </trkpt>
      <trkpt lat="47.18662" lon="5.01685">
        <ele>223.6</ele>
        <time>2019-12-03T14:51:08Z</time>
      </trkpt>
      <trkpt lat="47.18666" lon="5.01671">
        <ele>222.5</ele>
        <time>2019-12-03T14:51:17Z</time>
      </trkpt>
      <trkpt lat="47.1867" lon="5.01658">
        <ele>221.6</ele>
        <time>2019-12-03T14:51:26Z</time>
      </trkpt>
      <trkpt lat="47.18675" lon="5.01646">
        <ele>222.7</ele>
        <time>2019-12-03T14:51:34Z</time>
      </trkpt>
      <trkpt lat="47.18679" lon="5.01635">
        <ele>224.5</ele>
        <time>2019-12-03T14:51:42Z</time>
      </trkpt>
      <trkpt lat="47.18685" lon="5.01624">
        <ele>224.8</ele>
        <time>2019-12-03T14:51:50Z</time>
      </trkpt>
      <trkpt lat="47.18689" lon="5.01612">
        <ele>225.8</ele>
        <time>2019-12-03T14:51:58Z</time>
      </trkpt>
      <trkpt lat="47.18692" lon="5.01599">
        <ele>225.4</ele>
        <time>2019-12-03T14:52:06Z</time>
      </trkpt>
      <trkpt lat="47.18694" lon="5.01585">
        <ele>224.2</ele>
        <time>2019-12-03T14:52:15Z</time>
      </trkpt>
      <trkpt lat="47.18697" lon="5.01571">
        <ele>224.9</ele>
        <time>2019-12-03T14:52:24Z</time>
      </trkpt>
      <trkpt lat="47.18699" lon="5.01557">
        <ele>223.8</ele>
        <time>2019-12-03T14:52:33Z</time>
      </trkpt>
      <trkpt lat="47.18701" lon="5.01544">
        <ele>223.8</ele>
        <time>2019-12-03T14:52:41Z</time>
      </trkpt>
      <trkpt lat="47.18703" lon="5.01529">
        <ele>225.3</ele>
        <time>2019-12-03T14:52:49Z</time>
      </trkpt>
      <trkpt lat="47.18707" lon="5.01516">
        <ele>225.4</ele>
        <time>2019-12-03T14:52:57Z</time>
      </trkpt>
      <trkpt lat="47.18709" lon="5.01502">
        <ele>226.3</ele>
        <time>2019-12-03T14:53:06Z</time>
      </trkpt>
      <trkpt lat="47.18711" lon="5.01488">
        <ele>225.8</ele>
        <time>2019-12-03T14:53:15Z</time>
      </trkpt>
      <trkpt lat="47.18713" lon="5.01475">
        <ele>225</ele>
        <time>2019-12-03T14:53:23Z</time>
      </trkpt>
      <trkpt lat="47.18715" lon="5.01461">
        <ele>225.4</ele>
        <time>2019-12-03T14:53:31Z</time>
      </trkpt>
      <trkpt lat="47.18715" lon="5.01447">
        <ele>224.9</ele>
        <time>2019-12-03T14:53:39Z</time>
      </trkpt>
      <trkpt lat="47.18717" lon="5.01434">
        <ele>223.1</ele>
        <time>2019-12-03T14:53:47Z</time>
      </trkpt>
      <trkpt lat="47.18717" lon="5.0142">
        <ele>222.1</ele>
        <time>2019-12-03T14:53:56Z</time>
      </trkpt>
      <trkpt lat="47.18718" lon="5.01407">
        <ele>221.9</ele>
        <time>2019-12-03T14:54:04Z</time>
      </trkpt>
      <trkpt lat="47.1872" lon="5.01393">
        <ele>223.3</ele>
        <time>2019-12-03T14:54:12Z</time>
      </trkpt>
      <trkpt lat="47.18723" lon="5.0138">
        <ele>223.6</ele>
        <time>2019-12-03T14:54:20Z</time>
      </trkpt>
      <trkpt lat="47.18725" lon="5.01366">
        <ele>223.8</ele>
        <time>2019-12-03T14:54:30Z</time>
      </trkpt>
      <trkpt lat="47.1873" lon="5.01352">
        <ele>226</ele>
        <time>2019-12-03T14:54:39Z</time>
      </trkpt>
      <trkpt lat="47.18733" lon="5.01338">
        <ele>228.5</ele>
        <time>2019-12-03T14:54:48Z</time>
      </trkpt>
      <trkpt lat="47.18737" lon="5.01325">
        <ele>229.6</ele>
        <time>2019-12-03T14:54:55Z</time>
      </trkpt>
      <trkpt lat="47.1874" lon="5.01312">
        <ele>231.8</ele>
        <time>2019-12-03T14:55:03Z</time>
      </trkpt>
      <trkpt lat="47.18741" lon="5.01298">
        <ele>233.9</ele>
        <time>2019-12-03T14:55:11Z</time>
      </trkpt>
      <trkpt lat="47.18744" lon="5.01285">
        <ele>234.6</ele>
        <time>2019-12-03T14:55:19Z</time>
      </trkpt>
      <trkpt lat="47.18746" lon="5.01272">
        <ele>236.2</ele>
        <time>2019-12-03T14:55:28Z</time>
      </trkpt>
      <trkpt lat="47.18747" lon="5.01259">
        <ele>238.4</ele>
        <time>2019-12-03T14:55:36Z</time>
      </trkpt>
      <trkpt lat="47.18749" lon="5.01244">
        <ele>240.7</ele>
        <time>2019-12-03T14:55:44Z</time>
      </trkpt>
      <trkpt lat="47.18752" lon="5.0123">
        <ele>242.3</ele>
        <time>2019-12-03T14:55:52Z</time>
      </trkpt>
      <trkpt lat="47.18754" lon="5.01215">
        <ele>241.5</ele>
        <time>2019-12-03T14:56:00Z</time>
      </trkpt>
      <trkpt lat="47.18757" lon="5.01203">
        <ele>241.9</ele>
        <time>2019-12-03T14:56:07Z</time>
      </trkpt>
      <trkpt lat="47.1876" lon="5.01189">
        <ele>240.9</ele>
        <time>2019-12-03T14:56:15Z</time>
      </trkpt>
      <trkpt lat="47.18763" lon="5.01177">
        <ele>240.6</ele>
        <time>2019-12-03T14:56:23Z</time>
      </trkpt>
      <trkpt lat="47.18765" lon="5.01163">
        <ele>238.8</ele>
        <time>2019-12-03T14:56:33Z</time>
      </trkpt>
      <trkpt lat="47.18769" lon="5.0115">
        <ele>232.6</ele>
        <time>2019-12-03T14:56:44Z</time>
      </trkpt>
      <trkpt lat="47.18771" lon="5.01137">
        <ele>230.6</ele>
        <time>2019-12-03T14:56:52Z</time>
      </trkpt>
      <trkpt lat="47.18773" lon="5.01123">
        <ele>229.2</ele>
        <time>2019-12-03T14:57:01Z</time>
      </trkpt>
      <trkpt lat="47.18774" lon="5.01109">
        <ele>227.5</ele>
        <time>2019-12-03T14:57:12Z</time>
      </trkpt>
      <trkpt lat="47.18776" lon="5.01094">
        <ele>227.1</ele>
        <time>2019-12-03T14:57:21Z</time>
      </trkpt>
      <trkpt lat="47.18778" lon="5.0108">
        <ele>228.2</ele>
        <time>2019-12-03T14:57:29Z</time>
      </trkpt>
      <trkpt lat="47.1878" lon="5.01066">
        <ele>228.2</ele>
        <time>2019-12-03T14:57:38Z</time>
      </trkpt>
      <trkpt lat="47.18781" lon="5.01052">
        <ele>228.7</ele>
        <time>2019-12-03T14:57:48Z</time>
      </trkpt>
      <trkpt lat="47.18785" lon="5.0104">
        <ele>229.3</ele>
        <time>2019-12-03T14:57:57Z</time>
      </trkpt>
      <trkpt lat="47.1879" lon="5.01027">
        <ele>230</ele>
        <time>2019-12-03T14:58:05Z</time>
      </trkpt>
      <trkpt lat="47.18792" lon="5.01014">
        <ele>227</ele>
        <time>2019-12-03T14:59:48Z</time>
      </trkpt>
      <trkpt lat="47.18791" lon="5.01">
        <ele>225</ele>
        <time>2019-12-03T14:59:56Z</time>
      </trkpt>
      <trkpt lat="47.18793" lon="5.00986">
        <ele>223.7</ele>
        <time>2019-12-03T15:00:03Z</time>
      </trkpt>
      <trkpt lat="47.18795" lon="5.00972">
        <ele>224.1</ele>
        <time>2019-12-03T15:00:11Z</time>
      </trkpt>
      <trkpt lat="47.18798" lon="5.00958">
        <ele>223</ele>
        <time>2019-12-03T15:00:19Z</time>
      </trkpt>
      <trkpt lat="47.18801" lon="5.00945">
        <ele>222.6</ele>
        <time>2019-12-03T15:00:27Z</time>
      </trkpt>
      <trkpt lat="47.18803" lon="5.0093">
        <ele>222.7</ele>
        <time>2019-12-03T15:00:35Z</time>
      </trkpt>
      <trkpt lat="47.18806" lon="5.00916">
        <ele>222.9</ele>
        <time>2019-12-03T15:00:43Z</time>
      </trkpt>
      <trkpt lat="47.18809" lon="5.00903">
        <ele>225</ele>
        <time>2019-12-03T15:00:51Z</time>
      </trkpt>
      <trkpt lat="47.18813" lon="5.00891">
        <ele>226.7</ele>
        <time>2019-12-03T15:00:58Z</time>
      </trkpt>
      <trkpt lat="47.18816" lon="5.00877">
        <ele>228</ele>
        <time>2019-12-03T15:01:06Z</time>
      </trkpt>
      <trkpt lat="47.18818" lon="5.00864">
        <ele>229.4</ele>
        <time>2019-12-03T15:01:14Z</time>
      </trkpt>
      <trkpt lat="47.1882" lon="5.0085">
        <ele>229.3</ele>
        <time>2019-12-03T15:01:22Z</time>
      </trkpt>
      <trkpt lat="47.18823" lon="5.00836">
        <ele>228.4</ele>
        <time>2019-12-03T15:01:30Z</time>
      </trkpt>
      <trkpt lat="47.18825" lon="5.00823">
        <ele>227.6</ele>
        <time>2019-12-03T15:01:50Z</time>
      </trkpt>
      <trkpt lat="47.18827" lon="5.00809">
        <ele>227.9</ele>
        <time>2019-12-03T15:01:59Z</time>
      </trkpt>
      <trkpt lat="47.18829" lon="5.00796">
        <ele>228.9</ele>
        <time>2019-12-03T15:02:07Z</time>
      </trkpt>
      <trkpt lat="47.18831" lon="5.00783">
        <ele>229.5</ele>
        <time>2019-12-03T15:02:14Z</time>
      </trkpt>
      <trkpt lat="47.18833" lon="5.0077">
        <ele>229.3</ele>
        <time>2019-12-03T15:02:22Z</time>
      </trkpt>
      <trkpt lat="47.18835" lon="5.00756">
        <ele>228.4</ele>
        <time>2019-12-03T15:02:30Z</time>
      </trkpt>
      <trkpt lat="47.18837" lon="5.00743">
        <ele>227.3</ele>
        <time>2019-12-03T15:02:38Z</time>
      </trkpt>
      <trkpt lat="47.1884" lon="5.00728">
        <ele>226.3</ele>
        <time>2019-12-03T15:02:46Z</time>
      </trkpt>
      <trkpt lat="47.18843" lon="5.00715">
        <ele>226.8</ele>
        <time>2019-12-03T15:02:54Z</time>
      </trkpt>
      <trkpt lat="47.18845" lon="5.00701">
        <ele>226.6</ele>
        <time>2019-12-03T15:03:02Z</time>
      </trkpt>
      <trkpt lat="47.18849" lon="5.00688">
        <ele>227.1</ele>
        <time>2019-12-03T15:03:10Z</time>
      </trkpt>
      <trkpt lat="47.18851" lon="5.00675">
        <ele>227.3</ele>
        <time>2019-12-03T15:03:18Z</time>
      </trkpt>
      <trkpt lat="47.18853" lon="5.00661">
        <ele>226</ele>
        <time>2019-12-03T15:03:55Z</time>
      </trkpt>
      <trkpt lat="47.18854" lon="5.00647">
        <ele>226.4</ele>
        <time>2019-12-03T15:04:03Z</time>
      </trkpt>
      <trkpt lat="47.18856" lon="5.00634">
        <ele>227.3</ele>
        <time>2019-12-03T15:04:12Z</time>
      </trkpt>
      <trkpt lat="47.18859" lon="5.0062">
        <ele>229.1</ele>
        <time>2019-12-03T15:04:20Z</time>
      </trkpt>
      <trkpt lat="47.18862" lon="5.00607">
        <ele>230</ele>
        <time>2019-12-03T15:04:27Z</time>
      </trkpt>
      <trkpt lat="47.18865" lon="5.00594">
        <ele>230.6</ele>
        <time>2019-12-03T15:04:34Z</time>
      </trkpt>
      <trkpt lat="47.18867" lon="5.00581">
        <ele>230.9</ele>
        <time>2019-12-03T15:04:41Z</time>
      </trkpt>
      <trkpt lat="47.18872" lon="5.00568">
        <ele>230.7</ele>
        <time>2019-12-03T15:04:56Z</time>
      </trkpt>
      <trkpt lat="47.18873" lon="5.00554">
        <ele>230.3</ele>
        <time>2019-12-03T15:05:05Z</time>
      </trkpt>
      <trkpt lat="47.18873" lon="5.0054">
        <ele>230.3</ele>
        <time>2019-12-03T15:05:13Z</time>
      </trkpt>
      <trkpt lat="47.18875" lon="5.00527">
        <ele>231.5</ele>
        <time>2019-12-03T15:05:21Z</time>
      </trkpt>
      <trkpt lat="47.18878" lon="5.00513">
        <ele>231.8</ele>
        <time>2019-12-03T15:05:29Z</time>
      </trkpt>
      <trkpt lat="47.1888" lon="5.00499">
        <ele>232.4</ele>
        <time>2019-12-03T15:05:37Z</time>
      </trkpt>
      <trkpt lat="47.18882" lon="5.00485">
        <ele>233.3</ele>
        <time>2019-12-03T15:05:45Z</time>
      </trkpt>
      <trkpt lat="47.18884" lon="5.00472">
        <ele>233</ele>
        <time>2019-12-03T15:05:53Z</time>
      </trkpt>
      <trkpt lat="47.18887" lon="5.00459">
        <ele>232.3</ele>
        <time>2019-12-03T15:06:01Z</time>
      </trkpt>
      <trkpt lat="47.1889" lon="5.00446">
        <ele>234.3</ele>
        <time>2019-12-03T15:06:09Z</time>
      </trkpt>
      <trkpt lat="47.18893" lon="5.00432">
        <ele>235.9</ele>
        <time>2019-12-03T15:06:17Z</time>
      </trkpt>
      <trkpt lat="47.18895" lon="5.00417">
        <ele>236.5</ele>
        <time>2019-12-03T15:06:25Z</time>
      </trkpt>
      <trkpt lat="47.18898" lon="5.00404">
        <ele>236.4</ele>
        <time>2019-12-03T15:06:32Z</time>
      </trkpt>
      <trkpt lat="47.18898" lon="5.00389">
        <ele>237.7</ele>
        <time>2019-12-03T15:06:40Z</time>
      </trkpt>
      <trkpt lat="47.189" lon="5.00376">
        <ele>238.3</ele>
        <time>2019-12-03T15:06:49Z</time>
      </trkpt>
      <trkpt lat="47.18901" lon="5.00363">
        <ele>236.5</ele>
        <time>2019-12-03T15:06:58Z</time>
      </trkpt>
      <trkpt lat="47.18903" lon="5.00349">
        <ele>233.9</ele>
        <time>2019-12-03T15:07:07Z</time>
      </trkpt>
      <trkpt lat="47.18905" lon="5.00335">
        <ele>234.9</ele>
        <time>2019-12-03T15:07:15Z</time>
      </trkpt>
      <trkpt lat="47.18908" lon="5.00321">
        <ele>234.3</ele>
        <time>2019-12-03T15:07:24Z</time>
      </trkpt>
      <trkpt lat="47.1891" lon="5.00306">
        <ele>233.8</ele>
        <time>2019-12-03T15:07:32Z</time>
      </trkpt>
      <trkpt lat="47.1891" lon="5.00293">
        <ele>233</ele>
        <time>2019-12-03T15:08:31Z</time>
      </trkpt>
      <trkpt lat="47.18905" lon="5.00281">
        <ele>232.6</ele>
        <time>2019-12-03T15:08:54Z</time>
      </trkpt>
      <trkpt lat="47.18896" lon="5.00276">
        <ele>229.8</ele>
        <time>2019-12-03T15:09:04Z</time>
      </trkpt>
      <trkpt lat="47.18888" lon="5.00267">
        <ele>226.8</ele>
        <time>2019-12-03T15:09:13Z</time>
      </trkpt>
      <trkpt lat="47.1888" lon="5.00259">
        <ele>224.9</ele>
        <time>2019-12-03T15:09:21Z</time>
      </trkpt>
      <trkpt lat="47.18872" lon="5.00251">
        <ele>223.3</ele>
        <time>2019-12-03T15:09:28Z</time>
      </trkpt>
      <trkpt lat="47.18864" lon="5.00241">
        <ele>222.7</ele>
        <time>2019-12-03T15:09:35Z</time>
      </trkpt>
      <trkpt lat="47.18857" lon="5.00233">
        <ele>222.6</ele>
        <time>2019-12-03T15:09:43Z</time>
      </trkpt>
      <trkpt lat="47.18849" lon="5.00225">
        <ele>222.3</ele>
        <time>2019-12-03T15:09:52Z</time>
      </trkpt>
      <trkpt lat="47.1884" lon="5.00218">
        <ele>222.8</ele>
        <time>2019-12-03T15:10:00Z</time>
      </trkpt>
      <trkpt lat="47.18831" lon="5.0021">
        <ele>221.2</ele>
        <time>2019-12-03T15:10:08Z</time>
      </trkpt>
      <trkpt lat="47.18824" lon="5.00202">
        <ele>220.7</ele>
        <time>2019-12-03T15:10:15Z</time>
      </trkpt>
      <trkpt lat="47.18816" lon="5.00195">
        <ele>219.9</ele>
        <time>2019-12-03T15:10:22Z</time>
      </trkpt>
      <trkpt lat="47.18808" lon="5.00187">
        <ele>220.8</ele>
        <time>2019-12-03T15:10:30Z</time>
      </trkpt>
      <trkpt lat="47.18799" lon="5.0018">
        <ele>222.1</ele>
        <time>2019-12-03T15:10:38Z</time>
      </trkpt>
      <trkpt lat="47.18791" lon="5.00172">
        <ele>222.2</ele>
        <time>2019-12-03T15:10:46Z</time>
      </trkpt>
      <trkpt lat="47.18783" lon="5.00165">
        <ele>221.9</ele>
        <time>2019-12-03T15:10:54Z</time>
      </trkpt>
      <trkpt lat="47.18775" lon="5.00157">
        <ele>222.8</ele>
        <time>2019-12-03T15:11:02Z</time>
      </trkpt>
      <trkpt lat="47.18768" lon="5.00148">
        <ele>222.9</ele>
        <time>2019-12-03T15:11:09Z</time>
      </trkpt>
      <trkpt lat="47.18761" lon="5.00139">
        <ele>223.1</ele>
        <time>2019-12-03T15:11:59Z</time>
      </trkpt>
      <trkpt lat="47.18752" lon="5.00132">
        <ele>223</ele>
        <time>2019-12-03T15:12:08Z</time>
      </trkpt>
      <trkpt lat="47.18743" lon="5.00127">
        <ele>223.3</ele>
        <time>2019-12-03T15:12:17Z</time>
      </trkpt>
      <trkpt lat="47.18735" lon="5.00121">
        <ele>223.5</ele>
        <time>2019-12-03T15:12:25Z</time>
      </trkpt>
      <trkpt lat="47.18727" lon="5.00113">
        <ele>224.1</ele>
        <time>2019-12-03T15:12:33Z</time>
      </trkpt>
      <trkpt lat="47.1872" lon="5.00104">
        <ele>224</ele>
        <time>2019-12-03T15:12:40Z</time>
      </trkpt>
      <trkpt lat="47.18713" lon="5.00095">
        <ele>223.9</ele>
        <time>2019-12-03T15:12:47Z</time>
      </trkpt>
      <trkpt lat="47.18705" lon="5.00088">
        <ele>223.9</ele>
        <time>2019-12-03T15:12:54Z</time>
      </trkpt>
      <trkpt lat="47.18697" lon="5.00079">
        <ele>224.6</ele>
        <time>2019-12-03T15:13:02Z</time>
      </trkpt>
      <trkpt lat="47.18689" lon="5.00073">
        <ele>224.9</ele>
        <time>2019-12-03T15:13:10Z</time>
      </trkpt>
      <trkpt lat="47.18681" lon="5.00066">
        <ele>225.6</ele>
        <time>2019-12-03T15:13:18Z</time>
      </trkpt>
      <trkpt lat="47.18674" lon="5.00058">
        <ele>227.8</ele>
        <time>2019-12-03T15:14:01Z</time>
      </trkpt>
      <trkpt lat="47.18666" lon="5.00051">
        <ele>227.7</ele>
        <time>2019-12-03T15:14:11Z</time>
      </trkpt>
      <trkpt lat="47.18657" lon="5.00045">
        <ele>226.4</ele>
        <time>2019-12-03T15:14:20Z</time>
      </trkpt>
      <trkpt lat="47.18648" lon="5.00039">
        <ele>224.1</ele>
        <time>2019-12-03T15:14:29Z</time>
      </trkpt>
      <trkpt lat="47.18639" lon="5.00033">
        <ele>224.1</ele>
        <time>2019-12-03T15:14:38Z</time>
      </trkpt>
      <trkpt lat="47.18631" lon="5.00025">
        <ele>225</ele>
        <time>2019-12-03T15:14:47Z</time>
      </trkpt>
      <trkpt lat="47.18623" lon="5.00018">
        <ele>225.1</ele>
        <time>2019-12-03T15:14:57Z</time>
      </trkpt>
      <trkpt lat="47.18615" lon="5.00011">
        <ele>225.5</ele>
        <time>2019-12-03T15:15:05Z</time>
      </trkpt>
      <trkpt lat="47.18607" lon="5.00001">
        <ele>225.1</ele>
        <time>2019-12-03T15:15:13Z</time>
      </trkpt>
      <trkpt lat="47.18599" lon="4.99993">
        <ele>224.9</ele>
        <time>2019-12-03T15:15:21Z</time>
      </trkpt>
      <trkpt lat="47.18591" lon="4.99986">
        <ele>226.2</ele>
        <time>2019-12-03T15:15:30Z</time>
      </trkpt>
      <trkpt lat="47.18583" lon="4.99977">
        <ele>225.8</ele>
        <time>2019-12-03T15:16:03Z</time>
      </trkpt>
      <trkpt lat="47.18574" lon="4.99971">
        <ele>225.2</ele>
        <time>2019-12-03T15:16:11Z</time>
      </trkpt>
      <trkpt lat="47.18567" lon="4.99962">
        <ele>226</ele>
        <time>2019-12-03T15:16:18Z</time>
      </trkpt>
      <trkpt lat="47.18561" lon="4.99952">
        <ele>226.3</ele>
        <time>2019-12-03T15:16:26Z</time>
      </trkpt>
      <trkpt lat="47.18555" lon="4.99939">
        <ele>226.7</ele>
        <time>2019-12-03T15:16:33Z</time>
      </trkpt>
      <trkpt lat="47.1855" lon="4.99927">
        <ele>227</ele>
        <time>2019-12-03T15:16:41Z</time>
      </trkpt>
      <trkpt lat="47.18544" lon="4.99916">
        <ele>226.8</ele>
        <time>2019-12-03T15:16:49Z</time>
      </trkpt>
      <trkpt lat="47.18538" lon="4.99905">
        <ele>226.9</ele>
        <time>2019-12-03T15:16:57Z</time>
      </trkpt>
      <trkpt lat="47.18533" lon="4.99894">
        <ele>227</ele>
        <time>2019-12-03T15:17:04Z</time>
      </trkpt>
      <trkpt lat="47.18527" lon="4.99883">
        <ele>227.9</ele>
        <time>2019-12-03T15:17:11Z</time>
      </trkpt>
      <trkpt lat="47.18521" lon="4.99872">
        <ele>228.8</ele>
        <time>2019-12-03T15:17:19Z</time>
      </trkpt>
      <trkpt lat="47.18515" lon="4.99861">
        <ele>229.1</ele>
        <time>2019-12-03T15:17:27Z</time>
      </trkpt>
      <trkpt lat="47.1851" lon="4.99851">
        <ele>229.2</ele>
        <time>2019-12-03T15:17:34Z</time>
      </trkpt>
      <trkpt lat="47.18504" lon="4.99838">
        <ele>230.9</ele>
        <time>2019-12-03T15:18:09Z</time>
      </trkpt>
      <trkpt lat="47.18497" lon="4.99829">
        <ele>230</ele>
        <time>2019-12-03T15:18:17Z</time>
      </trkpt>
      <trkpt lat="47.18489" lon="4.99822">
        <ele>229.3</ele>
        <time>2019-12-03T15:18:24Z</time>
      </trkpt>
      <trkpt lat="47.18481" lon="4.99814">
        <ele>229.4</ele>
        <time>2019-12-03T15:18:32Z</time>
      </trkpt>
      <trkpt lat="47.18473" lon="4.99806">
        <ele>229.5</ele>
        <time>2019-12-03T15:18:40Z</time>
      </trkpt>
      <trkpt lat="47.18465" lon="4.99798">
        <ele>228.8</ele>
        <time>2019-12-03T15:18:48Z</time>
      </trkpt>
      <trkpt lat="47.18458" lon="4.99789">
        <ele>228</ele>
        <time>2019-12-03T15:18:55Z</time>
      </trkpt>
      <trkpt lat="47.1845" lon="4.99781">
        <ele>226.5</ele>
        <time>2019-12-03T15:19:03Z</time>
      </trkpt>
      <trkpt lat="47.18441" lon="4.99773">
        <ele>225.4</ele>
        <time>2019-12-03T15:19:12Z</time>
      </trkpt>
      <trkpt lat="47.18432" lon="4.99766">
        <ele>224.7</ele>
        <time>2019-12-03T15:19:20Z</time>
      </trkpt>
      <trkpt lat="47.18427" lon="4.99754">
        <ele>224</ele>
        <time>2019-12-03T15:19:28Z</time>
      </trkpt>
      <trkpt lat="47.18425" lon="4.99741">
        <ele>223.9</ele>
        <time>2019-12-03T15:19:34Z</time>
      </trkpt>
      <trkpt lat="47.18426" lon="4.99727">
        <ele>223.6</ele>
        <time>2019-12-03T15:19:40Z</time>
      </trkpt>
      <trkpt lat="47.18428" lon="4.99713">
        <ele>223.8</ele>
        <time>2019-12-03T15:19:47Z</time>
      </trkpt>
      <trkpt lat="47.18429" lon="4.99699">
        <ele>224.1</ele>
        <time>2019-12-03T15:19:54Z</time>
      </trkpt>
      <trkpt lat="47.18431" lon="4.99685">
        <ele>224.9</ele>
        <time>2019-12-03T15:20:01Z</time>
      </trkpt>
      <trkpt lat="47.18434" lon="4.99671">
        <ele>224.9</ele>
        <time>2019-12-03T15:20:09Z</time>
      </trkpt>
      <trkpt lat="47.18436" lon="4.99658">
        <ele>225.1</ele>
        <time>2019-12-03T15:20:16Z</time>
      </trkpt>
      <trkpt lat="47.1844" lon="4.99645">
        <ele>224.9</ele>
        <time>2019-12-03T15:20:24Z</time>
      </trkpt>
      <trkpt lat="47.18444" lon="4.99632">
        <ele>225</ele>
        <time>2019-12-03T15:20:31Z</time>
      </trkpt>
      <trkpt lat="47.18449" lon="4.9962">
        <ele>225</ele>
        <time>2019-12-03T15:20:38Z</time>
      </trkpt>
      <trkpt lat="47.18453" lon="4.99608">
        <ele>225.1</ele>
        <time>2019-12-03T15:20:45Z</time>
      </trkpt>
      <trkpt lat="47.18458" lon="4.99596">
        <ele>225.2</ele>
        <time>2019-12-03T15:20:52Z</time>
      </trkpt>
      <trkpt lat="47.18465" lon="4.99585">
        <ele>224.5</ele>
        <time>2019-12-03T15:21:00Z</time>
      </trkpt>
      <trkpt lat="47.18472" lon="4.99575">
        <ele>224.5</ele>
        <time>2019-12-03T15:21:08Z</time>
      </trkpt>
      <trkpt lat="47.18479" lon="4.99565">
        <ele>224.7</ele>
        <time>2019-12-03T15:21:15Z</time>
      </trkpt>
      <trkpt lat="47.18487" lon="4.99556">
        <ele>225.2</ele>
        <time>2019-12-03T15:21:23Z</time>
      </trkpt>
      <trkpt lat="47.18494" lon="4.99546">
        <ele>225.5</ele>
        <time>2019-12-03T15:21:31Z</time>
      </trkpt>
      <trkpt lat="47.18501" lon="4.99537">
        <ele>225.7</ele>
        <time>2019-12-03T15:21:39Z</time>
      </trkpt>
      <trkpt lat="47.18509" lon="4.99528">
        <ele>225.9</ele>
        <time>2019-12-03T15:21:48Z</time>
      </trkpt>
      <trkpt lat="47.18517" lon="4.9952">
        <ele>225.3</ele>
        <time>2019-12-03T15:21:57Z</time>
      </trkpt>
      <trkpt lat="47.18525" lon="4.99512">
        <ele>225.5</ele>
        <time>2019-12-03T15:22:06Z</time>
      </trkpt>
      <trkpt lat="47.18534" lon="4.99505">
        <ele>226.2</ele>
        <time>2019-12-03T15:22:16Z</time>
      </trkpt>
      <trkpt lat="47.18541" lon="4.99498">
        <ele>226</ele>
        <time>2019-12-03T15:22:25Z</time>
      </trkpt>
      <trkpt lat="47.18549" lon="4.99491">
        <ele>224.9</ele>
        <time>2019-12-03T15:22:33Z</time>
      </trkpt>
      <trkpt lat="47.18557" lon="4.99484">
        <ele>224.7</ele>
        <time>2019-12-03T15:22:41Z</time>
      </trkpt>
      <trkpt lat="47.18566" lon="4.99477">
        <ele>223.9</ele>
        <time>2019-12-03T15:22:50Z</time>
      </trkpt>
      <trkpt lat="47.18575" lon="4.99472">
        <ele>223</ele>
        <time>2019-12-03T15:22:59Z</time>
      </trkpt>
      <trkpt lat="47.18582" lon="4.99466">
        <ele>223.6</ele>
        <time>2019-12-03T15:23:09Z</time>
      </trkpt>
      <trkpt lat="47.18589" lon="4.99456">
        <ele>223.6</ele>
        <time>2019-12-03T15:23:28Z</time>
      </trkpt>
      <trkpt lat="47.18597" lon="4.99448">
        <ele>222.9</ele>
        <time>2019-12-03T15:23:38Z</time>
      </trkpt>
      <trkpt lat="47.18605" lon="4.99442">
        <ele>222.1</ele>
        <time>2019-12-03T15:23:46Z</time>
      </trkpt>
      <trkpt lat="47.18613" lon="4.99437">
        <ele>221.7</ele>
        <time>2019-12-03T15:23:53Z</time>
      </trkpt>
      <trkpt lat="47.18621" lon="4.9943">
        <ele>221.4</ele>
        <time>2019-12-03T15:24:00Z</time>
      </trkpt>
      <trkpt lat="47.1863" lon="4.99426">
        <ele>224.4</ele>
        <time>2019-12-03T15:24:11Z</time>
      </trkpt>
      <trkpt lat="47.18639" lon="4.99422">
        <ele>224.3</ele>
        <time>2019-12-03T15:24:20Z</time>
      </trkpt>
      <trkpt lat="47.18647" lon="4.99413">
        <ele>225.4</ele>
        <time>2019-12-03T15:24:29Z</time>
      </trkpt>
      <trkpt lat="47.18655" lon="4.99409">
        <ele>224.8</ele>
        <time>2019-12-03T15:24:42Z</time>
      </trkpt>
      <trkpt lat="47.18663" lon="4.99402">
        <ele>223.5</ele>
        <time>2019-12-03T15:25:00Z</time>
      </trkpt>
      <trkpt lat="47.1867" lon="4.99393">
        <ele>223.3</ele>
        <time>2019-12-03T15:25:09Z</time>
      </trkpt>
      <trkpt lat="47.18678" lon="4.99387">
        <ele>223.3</ele>
        <time>2019-12-03T15:25:17Z</time>
      </trkpt>
      <trkpt lat="47.18686" lon="4.99378">
        <ele>223</ele>
        <time>2019-12-03T15:25:25Z</time>
      </trkpt>
      <trkpt lat="47.18694" lon="4.9937">
        <ele>222.1</ele>
        <time>2019-12-03T15:25:32Z</time>
      </trkpt>
      <trkpt lat="47.18701" lon="4.9936">
        <ele>223.3</ele>
        <time>2019-12-03T15:25:40Z</time>
      </trkpt>
      <trkpt lat="47.18709" lon="4.99354">
        <ele>224.9</ele>
        <time>2019-12-03T15:25:47Z</time>
      </trkpt>
      <trkpt lat="47.18716" lon="4.99345">
        <ele>226</ele>
        <time>2019-12-03T15:25:54Z</time>
      </trkpt>
      <trkpt lat="47.18724" lon="4.99337">
        <ele>226.1</ele>
        <time>2019-12-03T15:26:01Z</time>
      </trkpt>
      <trkpt lat="47.18731" lon="4.99328">
        <ele>225.3</ele>
        <time>2019-12-03T15:26:08Z</time>
      </trkpt>
      <trkpt lat="47.18737" lon="4.99317">
        <ele>224.8</ele>
        <time>2019-12-03T15:26:16Z</time>
      </trkpt>
      <trkpt lat="47.18742" lon="4.99305">
        <ele>224.9</ele>
        <time>2019-12-03T15:26:25Z</time>
      </trkpt>
      <trkpt lat="47.18747" lon="4.99293">
        <ele>225.7</ele>
        <time>2019-12-03T15:26:33Z</time>
      </trkpt>
      <trkpt lat="47.18752" lon="4.99281">
        <ele>226</ele>
        <time>2019-12-03T15:27:05Z</time>
      </trkpt>
      <trkpt lat="47.18755" lon="4.99268">
        <ele>225.3</ele>
        <time>2019-12-03T15:27:13Z</time>
      </trkpt>
      <trkpt lat="47.18759" lon="4.99255">
        <ele>226.1</ele>
        <time>2019-12-03T15:27:21Z</time>
      </trkpt>
      <trkpt lat="47.18763" lon="4.99242">
        <ele>226.4</ele>
        <time>2019-12-03T15:27:29Z</time>
      </trkpt>
      <trkpt lat="47.18767" lon="4.9923">
        <ele>226.9</ele>
        <time>2019-12-03T15:27:37Z</time>
      </trkpt>
      <trkpt lat="47.18769" lon="4.99217">
        <ele>227.1</ele>
        <time>2019-12-03T15:27:45Z</time>
      </trkpt>
      <trkpt lat="47.18772" lon="4.99203">
        <ele>227</ele>
        <time>2019-12-03T15:27:53Z</time>
      </trkpt>
      <trkpt lat="47.18773" lon="4.99189">
        <ele>226.7</ele>
        <time>2019-12-03T15:28:01Z</time>
      </trkpt>
      <trkpt lat="47.18774" lon="4.99175">
        <ele>226.3</ele>
        <time>2019-12-03T15:28:09Z</time>
      </trkpt>
      <trkpt lat="47.18773" lon="4.99161">
        <ele>226</ele>
        <time>2019-12-03T15:28:17Z</time>
      </trkpt>
      <trkpt lat="47.18773" lon="4.99146">
        <ele>225.5</ele>
        <time>2019-12-03T15:28:25Z</time>
      </trkpt>
      <trkpt lat="47.18774" lon="4.99132">
        <ele>225.4</ele>
        <time>2019-12-03T15:28:33Z</time>
      </trkpt>
      <trkpt lat="47.18775" lon="4.99117">
        <ele>226.5</ele>
        <time>2019-12-03T15:28:42Z</time>
      </trkpt>
      <trkpt lat="47.18776" lon="4.99104">
        <ele>227.9</ele>
        <time>2019-12-03T15:28:50Z</time>
      </trkpt>
      <trkpt lat="47.18778" lon="4.99089">
        <ele>229.1</ele>
        <time>2019-12-03T15:28:58Z</time>
      </trkpt>
      <trkpt lat="47.1878" lon="4.99075">
        <ele>229.5</ele>
        <time>2019-12-03T15:29:06Z</time>
      </trkpt>
      <trkpt lat="47.18781" lon="4.9906">
        <ele>229.9</ele>
        <time>2019-12-03T15:29:14Z</time>
      </trkpt>
      <trkpt lat="47.18782" lon="4.99046">
        <ele>230.8</ele>
        <time>2019-12-03T15:29:22Z</time>
      </trkpt>
      <trkpt lat="47.18781" lon="4.99032">
        <ele>230.6</ele>
        <time>2019-12-03T15:30:28Z</time>
      </trkpt>
      <trkpt lat="47.1878" lon="4.99018">
        <ele>231</ele>
        <time>2019-12-03T15:30:39Z</time>
      </trkpt>
      <trkpt lat="47.1878" lon="4.99004">
        <ele>228.7</ele>
        <time>2019-12-03T15:30:49Z</time>
      </trkpt>
      <trkpt lat="47.18782" lon="4.98989">
        <ele>227.5</ele>
        <time>2019-12-03T15:30:58Z</time>
      </trkpt>
      <trkpt lat="47.18784" lon="4.98975">
        <ele>226.8</ele>
        <time>2019-12-03T15:31:07Z</time>
      </trkpt>
      <trkpt lat="47.18785" lon="4.98962">
        <ele>226</ele>
        <time>2019-12-03T15:31:15Z</time>
      </trkpt>
      <trkpt lat="47.18787" lon="4.98949">
        <ele>225.9</ele>
        <time>2019-12-03T15:31:22Z</time>
      </trkpt>
      <trkpt lat="47.18789" lon="4.98935">
        <ele>226.4</ele>
        <time>2019-12-03T15:31:30Z</time>
      </trkpt>
      <trkpt lat="47.18792" lon="4.98922">
        <ele>227.5</ele>
        <time>2019-12-03T15:31:37Z</time>
      </trkpt>
      <trkpt lat="47.18793" lon="4.98907">
        <ele>228.6</ele>
        <time>2019-12-03T15:31:45Z</time>
      </trkpt>
      <trkpt lat="47.18794" lon="4.98893">
        <ele>229.1</ele>
        <time>2019-12-03T15:31:53Z</time>
      </trkpt>
      <trkpt lat="47.18794" lon="4.9888">
        <ele>230.1</ele>
        <time>2019-12-03T15:32:01Z</time>
      </trkpt>
      <trkpt lat="47.18794" lon="4.98865">
        <ele>231.8</ele>
        <time>2019-12-03T15:32:09Z</time>
      </trkpt>
      <trkpt lat="47.18799" lon="4.98855">
        <ele>232.3</ele>
        <time>2019-12-03T15:33:17Z</time>
      </trkpt>
      <trkpt lat="47.18802" lon="4.98841">
        <ele>230.9</ele>
        <time>2019-12-03T15:33:28Z</time>
      </trkpt>
      <trkpt lat="47.18804" lon="4.98827">
        <ele>230.2</ele>
        <time>2019-12-03T15:33:35Z</time>
      </trkpt>
      <trkpt lat="47.18805" lon="4.98813">
        <ele>231</ele>
        <time>2019-12-03T15:33:42Z</time>
      </trkpt>
      <trkpt lat="47.18807" lon="4.98796">
        <ele>231.9</ele>
        <time>2019-12-03T15:33:51Z</time>
      </trkpt>
      <trkpt lat="47.18808" lon="4.98782">
        <ele>232.3</ele>
        <time>2019-12-03T15:33:59Z</time>
      </trkpt>
      <trkpt lat="47.18809" lon="4.98768">
        <ele>231.4</ele>
        <time>2019-12-03T15:34:08Z</time>
      </trkpt>
      <trkpt lat="47.18808" lon="4.98754">
        <ele>231.5</ele>
        <time>2019-12-03T15:34:17Z</time>
      </trkpt>
      <trkpt lat="47.18807" lon="4.9874">
        <ele>232.4</ele>
        <time>2019-12-03T15:34:25Z</time>
      </trkpt>
      <trkpt lat="47.18805" lon="4.98725">
        <ele>233.4</ele>
        <time>2019-12-03T15:34:33Z</time>
      </trkpt>
      <trkpt lat="47.18803" lon="4.98711">
        <ele>233.5</ele>
        <time>2019-12-03T15:34:43Z</time>
      </trkpt>
      <trkpt lat="47.18802" lon="4.98698">
        <ele>232.8</ele>
        <time>2019-12-03T15:35:18Z</time>
      </trkpt>
      <trkpt lat="47.188" lon="4.98685">
        <ele>230</ele>
        <time>2019-12-03T15:35:27Z</time>
      </trkpt>
      <trkpt lat="47.18795" lon="4.98673">
        <ele>228.9</ele>
        <time>2019-12-03T15:35:37Z</time>
      </trkpt>
      <trkpt lat="47.18786" lon="4.98668">
        <ele>229.3</ele>
        <time>2019-12-03T15:35:45Z</time>
      </trkpt>
      <trkpt lat="47.18776" lon="4.98666">
        <ele>228.5</ele>
        <time>2019-12-03T15:35:53Z</time>
      </trkpt>
      <trkpt lat="47.18766" lon="4.98664">
        <ele>227.6</ele>
        <time>2019-12-03T15:36:17Z</time>
      </trkpt>
      <trkpt lat="47.18756" lon="4.98664">
        <ele>228</ele>
        <time>2019-12-03T15:36:25Z</time>
      </trkpt>
      <trkpt lat="47.18746" lon="4.98664">
        <ele>227.8</ele>
        <time>2019-12-03T15:36:33Z</time>
      </trkpt>
      <trkpt lat="47.18737" lon="4.98662">
        <ele>229</ele>
        <time>2019-12-03T15:36:41Z</time>
      </trkpt>
      <trkpt lat="47.18729" lon="4.98657">
        <ele>229.2</ele>
        <time>2019-12-03T15:36:48Z</time>
      </trkpt>
      <trkpt lat="47.18719" lon="4.98653">
        <ele>229.8</ele>
        <time>2019-12-03T15:36:56Z</time>
      </trkpt>
      <trkpt lat="47.1871" lon="4.98647">
        <ele>230</ele>
        <time>2019-12-03T15:37:04Z</time>
      </trkpt>
      <trkpt lat="47.18701" lon="4.98642">
        <ele>231.7</ele>
        <time>2019-12-03T15:37:13Z</time>
      </trkpt>
      <trkpt lat="47.18693" lon="4.98636">
        <ele>233.4</ele>
        <time>2019-12-03T15:37:21Z</time>
      </trkpt>
      <trkpt lat="47.18685" lon="4.98629">
        <ele>234.3</ele>
        <time>2019-12-03T15:37:29Z</time>
      </trkpt>
      <trkpt lat="47.18677" lon="4.98622">
        <ele>234.3</ele>
        <time>2019-12-03T15:37:37Z</time>
      </trkpt>
      <trkpt lat="47.18669" lon="4.98614">
        <ele>234.6</ele>
        <time>2019-12-03T15:37:46Z</time>
      </trkpt>
      <trkpt lat="47.18662" lon="4.98607">
        <ele>234.8</ele>
        <time>2019-12-03T15:37:56Z</time>
      </trkpt>
      <trkpt lat="47.18655" lon="4.98597">
        <ele>234.9</ele>
        <time>2019-12-03T15:38:13Z</time>
      </trkpt>
      <trkpt lat="47.18647" lon="4.9859">
        <ele>234.7</ele>
        <time>2019-12-03T15:38:22Z</time>
      </trkpt>
      <trkpt lat="47.18638" lon="4.98582">
        <ele>234</ele>
        <time>2019-12-03T15:38:31Z</time>
      </trkpt>
      <trkpt lat="47.18631" lon="4.98572">
        <ele>233.6</ele>
        <time>2019-12-03T15:38:39Z</time>
      </trkpt>
      <trkpt lat="47.18624" lon="4.98563">
        <ele>233.6</ele>
        <time>2019-12-03T15:38:47Z</time>
      </trkpt>
      <trkpt lat="47.18617" lon="4.98553">
        <ele>234.2</ele>
        <time>2019-12-03T15:38:56Z</time>
      </trkpt>
      <trkpt lat="47.1861" lon="4.98544">
        <ele>235.1</ele>
        <time>2019-12-03T15:39:04Z</time>
      </trkpt>
      <trkpt lat="47.18603" lon="4.98533">
        <ele>234.6</ele>
        <time>2019-12-03T15:39:12Z</time>
      </trkpt>
      <trkpt lat="47.18597" lon="4.98522">
        <ele>234.8</ele>
        <time>2019-12-03T15:39:20Z</time>
      </trkpt>
      <trkpt lat="47.1859" lon="4.98513">
        <ele>234.5</ele>
        <time>2019-12-03T15:39:27Z</time>
      </trkpt>
      <trkpt lat="47.18583" lon="4.98505">
        <ele>233.4</ele>
        <time>2019-12-03T15:39:35Z</time>
      </trkpt>
      <trkpt lat="47.18576" lon="4.98496">
        <ele>232.5</ele>
        <time>2019-12-03T15:39:44Z</time>
      </trkpt>
      <trkpt lat="47.18569" lon="4.98487">
        <ele>232.5</ele>
        <time>2019-12-03T15:39:53Z</time>
      </trkpt>
      <trkpt lat="47.18562" lon="4.98478">
        <ele>233.8</ele>
        <time>2019-12-03T15:40:01Z</time>
      </trkpt>
      <trkpt lat="47.18555" lon="4.98469">
        <ele>234.3</ele>
        <time>2019-12-03T15:40:09Z</time>
      </trkpt>
      <trkpt lat="47.18548" lon="4.98459">
        <ele>233.3</ele>
        <time>2019-12-03T15:40:18Z</time>
      </trkpt>
      <trkpt lat="47.18541" lon="4.98449">
        <ele>232.6</ele>
        <time>2019-12-03T15:40:27Z</time>
      </trkpt>
      <trkpt lat="47.18534" lon="4.98439">
        <ele>231</ele>
        <time>2019-12-03T15:40:36Z</time>
      </trkpt>
      <trkpt lat="47.18527" lon="4.9843">
        <ele>231.2</ele>
        <time>2019-12-03T15:40:44Z</time>
      </trkpt>
      <trkpt lat="47.18521" lon="4.98419">
        <ele>229.9</ele>
        <time>2019-12-03T15:41:30Z</time>
      </trkpt>
      <trkpt lat="47.18513" lon="4.98412">
        <ele>230.3</ele>
        <time>2019-12-03T15:41:39Z</time>
      </trkpt>
      <trkpt lat="47.18506" lon="4.98403">
        <ele>230.1</ele>
        <time>2019-12-03T15:41:47Z</time>
      </trkpt>
      <trkpt lat="47.18499" lon="4.98395">
        <ele>229.8</ele>
        <time>2019-12-03T15:41:54Z</time>
      </trkpt>
      <trkpt lat="47.18491" lon="4.98386">
        <ele>229.7</ele>
        <time>2019-12-03T15:42:01Z</time>
      </trkpt>
      <trkpt lat="47.18485" lon="4.98376">
        <ele>230.2</ele>
        <time>2019-12-03T15:42:08Z</time>
      </trkpt>
      <trkpt lat="47.18478" lon="4.98366">
        <ele>231</ele>
        <time>2019-12-03T15:42:15Z</time>
      </trkpt>
      <trkpt lat="47.18471" lon="4.98357">
        <ele>231.9</ele>
        <time>2019-12-03T15:42:22Z</time>
      </trkpt>
      <trkpt lat="47.18463" lon="4.98348">
        <ele>232.5</ele>
        <time>2019-12-03T15:42:30Z</time>
      </trkpt>
      <trkpt lat="47.18455" lon="4.9834">
        <ele>232.2</ele>
        <time>2019-12-03T15:42:38Z</time>
      </trkpt>
      <trkpt lat="47.18446" lon="4.98334">
        <ele>231.1</ele>
        <time>2019-12-03T15:42:46Z</time>
      </trkpt>
      <trkpt lat="47.18437" lon="4.98329">
        <ele>230.6</ele>
        <time>2019-12-03T15:42:55Z</time>
      </trkpt>
      <trkpt lat="47.18428" lon="4.98323">
        <ele>229.4</ele>
        <time>2019-12-03T15:43:04Z</time>
      </trkpt>
      <trkpt lat="47.18419" lon="4.98318">
        <ele>228.8</ele>
        <time>2019-12-03T15:43:12Z</time>
      </trkpt>
      <trkpt lat="47.1841" lon="4.98312">
        <ele>228.5</ele>
        <time>2019-12-03T15:43:20Z</time>
      </trkpt>
      <trkpt lat="47.18401" lon="4.98307">
        <ele>228.3</ele>
        <time>2019-12-03T15:43:27Z</time>
      </trkpt>
      <trkpt lat="47.18393" lon="4.98302">
        <ele>228.5</ele>
        <time>2019-12-03T15:43:35Z</time>
      </trkpt>
      <trkpt lat="47.18384" lon="4.98297">
        <ele>228.7</ele>
        <time>2019-12-03T15:43:43Z</time>
      </trkpt>
      <trkpt lat="47.18375" lon="4.98292">
        <ele>227.8</ele>
        <time>2019-12-03T15:43:51Z</time>
      </trkpt>
      <trkpt lat="47.18366" lon="4.98287">
        <ele>226.7</ele>
        <time>2019-12-03T15:43:59Z</time>
      </trkpt>
      <trkpt lat="47.18356" lon="4.98282">
        <ele>226.3</ele>
        <time>2019-12-03T15:44:07Z</time>
      </trkpt>
      <trkpt lat="47.18347" lon="4.98277">
        <ele>226.7</ele>
        <time>2019-12-03T15:44:15Z</time>
      </trkpt>
      <trkpt lat="47.18338" lon="4.98272">
        <ele>226.6</ele>
        <time>2019-12-03T15:44:23Z</time>
      </trkpt>
      <trkpt lat="47.18329" lon="4.98267">
        <ele>227.1</ele>
        <time>2019-12-03T15:44:31Z</time>
      </trkpt>
      <trkpt lat="47.18321" lon="4.98261">
        <ele>227.1</ele>
        <time>2019-12-03T15:44:39Z</time>
      </trkpt>
      <trkpt lat="47.18311" lon="4.98257">
        <ele>227.7</ele>
        <time>2019-12-03T15:44:48Z</time>
      </trkpt>
      <trkpt lat="47.18302" lon="4.98253">
        <ele>228.3</ele>
        <time>2019-12-03T15:44:56Z</time>
      </trkpt>
      <trkpt lat="47.18293" lon="4.9825">
        <ele>227.7</ele>
        <time>2019-12-03T15:45:05Z</time>
      </trkpt>
      <trkpt lat="47.18284" lon="4.98247">
        <ele>227.3</ele>
        <time>2019-12-03T15:45:15Z</time>
      </trkpt>
      <trkpt lat="47.18274" lon="4.98245">
        <ele>226.4</ele>
        <time>2019-12-03T15:45:25Z</time>
      </trkpt>
      <trkpt lat="47.18265" lon="4.98241">
        <ele>225.5</ele>
        <time>2019-12-03T15:45:34Z</time>
      </trkpt>
      <trkpt lat="47.18255" lon="4.98238">
        <ele>225.8</ele>
        <time>2019-12-03T15:45:43Z</time>
      </trkpt>
      <trkpt lat="47.18246" lon="4.98236">
        <ele>226.3</ele>
        <time>2019-12-03T15:45:51Z</time>
      </trkpt>
      <trkpt lat="47.18236" lon="4.98235">
        <ele>226</ele>
        <time>2019-12-03T15:46:01Z</time>
      </trkpt>
      <trkpt lat="47.18226" lon="4.98232">
        <ele>225.3</ele>
        <time>2019-12-03T15:46:10Z</time>
      </trkpt>
      <trkpt lat="47.18216" lon="4.98231">
        <ele>224.8</ele>
        <time>2019-12-03T15:46:19Z</time>
      </trkpt>
      <trkpt lat="47.18208" lon="4.98227">
        <ele>224.9</ele>
        <time>2019-12-03T15:46:26Z</time>
      </trkpt>
      <trkpt lat="47.18198" lon="4.98225">
        <ele>225.1</ele>
        <time>2019-12-03T15:46:33Z</time>
      </trkpt>
      <trkpt lat="47.18189" lon="4.98223">
        <ele>225.8</ele>
        <time>2019-12-03T15:46:41Z</time>
      </trkpt>
      <trkpt lat="47.18181" lon="4.9823">
        <ele>226.8</ele>
        <time>2019-12-03T15:46:53Z</time>
      </trkpt>
      <trkpt lat="47.18176" lon="4.98242">
        <ele>227.8</ele>
        <time>2019-12-03T15:47:04Z</time>
      </trkpt>
      <trkpt lat="47.18174" lon="4.98255">
        <ele>227.7</ele>
        <time>2019-12-03T15:47:15Z</time>
      </trkpt>
      <trkpt lat="47.18169" lon="4.98267">
        <ele>227</ele>
        <time>2019-12-03T15:47:23Z</time>
      </trkpt>
      <trkpt lat="47.18167" lon="4.9828">
        <ele>227.7</ele>
        <time>2019-12-03T15:47:34Z</time>
      </trkpt>
      <trkpt lat="47.18163" lon="4.98293">
        <ele>228.4</ele>
        <time>2019-12-03T15:47:45Z</time>
      </trkpt>
      <trkpt lat="47.1816" lon="4.98307">
        <ele>227.5</ele>
        <time>2019-12-03T15:47:53Z</time>
      </trkpt>
      <trkpt lat="47.18157" lon="4.98321">
        <ele>227.5</ele>
        <time>2019-12-03T15:48:01Z</time>
      </trkpt>
      <trkpt lat="47.18153" lon="4.98334">
        <ele>227.3</ele>
        <time>2019-12-03T15:48:09Z</time>
      </trkpt>
      <trkpt lat="47.18148" lon="4.98347">
        <ele>226.7</ele>
        <time>2019-12-03T15:48:18Z</time>
      </trkpt>
      <trkpt lat="47.18141" lon="4.98358">
        <ele>226.5</ele>
        <time>2019-12-03T15:48:27Z</time>
      </trkpt>
      <trkpt lat="47.18132" lon="4.98361">
        <ele>226.5</ele>
        <time>2019-12-03T15:48:35Z</time>
      </trkpt>
      <trkpt lat="47.18122" lon="4.98357">
        <ele>226.2</ele>
        <time>2019-12-03T15:48:43Z</time>
      </trkpt>
      <trkpt lat="47.18112" lon="4.98353">
        <ele>226</ele>
        <time>2019-12-03T15:49:16Z</time>
      </trkpt>
      <trkpt lat="47.18104" lon="4.98349">
        <ele>225.5</ele>
        <time>2019-12-03T15:49:23Z</time>
      </trkpt>
      <trkpt lat="47.18094" lon="4.98344">
        <ele>225.2</ele>
        <time>2019-12-03T15:49:31Z</time>
      </trkpt>
      <trkpt lat="47.18085" lon="4.98339">
        <ele>225.4</ele>
        <time>2019-12-03T15:49:39Z</time>
      </trkpt>
      <trkpt lat="47.18076" lon="4.98334">
        <ele>225.3</ele>
        <time>2019-12-03T15:49:47Z</time>
      </trkpt>
      <trkpt lat="47.18068" lon="4.98328">
        <ele>225</ele>
        <time>2019-12-03T15:49:55Z</time>
      </trkpt>
      <trkpt lat="47.18059" lon="4.98323">
        <ele>224.9</ele>
        <time>2019-12-03T15:50:03Z</time>
      </trkpt>
      <trkpt lat="47.1805" lon="4.98318">
        <ele>225.2</ele>
        <time>2019-12-03T15:50:11Z</time>
      </trkpt>
      <trkpt lat="47.18041" lon="4.98314">
        <ele>225.1</ele>
        <time>2019-12-03T15:50:19Z</time>
      </trkpt>
      <trkpt lat="47.18032" lon="4.9831">
        <ele>225.4</ele>
        <time>2019-12-03T15:50:28Z</time>
      </trkpt>
      <trkpt lat="47.18023" lon="4.98306">
        <ele>225.3</ele>
        <time>2019-12-03T15:50:36Z</time>
      </trkpt>
      <trkpt lat="47.18014" lon="4.98301">
        <ele>225.3</ele>
        <time>2019-12-03T15:50:44Z</time>
      </trkpt>
      <trkpt lat="47.18005" lon="4.98297">
        <ele>225.6</ele>
        <time>2019-12-03T15:50:52Z</time>
      </trkpt>
      <trkpt lat="47.17996" lon="4.98293">
        <ele>226.5</ele>
        <time>2019-12-03T15:51:00Z</time>
      </trkpt>
      <trkpt lat="47.17987" lon="4.98287">
        <ele>227.4</ele>
        <time>2019-12-03T15:51:17Z</time>
      </trkpt>
      <trkpt lat="47.17978" lon="4.98284">
        <ele>227.5</ele>
        <time>2019-12-03T15:51:25Z</time>
      </trkpt>
      <trkpt lat="47.17969" lon="4.9828">
        <ele>227.2</ele>
        <time>2019-12-03T15:51:34Z</time>
      </trkpt>
      <trkpt lat="47.1796" lon="4.98277">
        <ele>227.2</ele>
        <time>2019-12-03T15:51:42Z</time>
      </trkpt>
      <trkpt lat="47.17951" lon="4.98272">
        <ele>227.5</ele>
        <time>2019-12-03T15:51:50Z</time>
      </trkpt>
      <trkpt lat="47.17942" lon="4.98267">
        <ele>227.9</ele>
        <time>2019-12-03T15:51:58Z</time>
      </trkpt>
      <trkpt lat="47.17932" lon="4.98263">
        <ele>227.5</ele>
        <time>2019-12-03T15:52:06Z</time>
      </trkpt>
      <trkpt lat="47.17924" lon="4.98258">
        <ele>226.7</ele>
        <time>2019-12-03T15:52:14Z</time>
      </trkpt>
      <trkpt lat="47.17914" lon="4.98253">
        <ele>226.3</ele>
        <time>2019-12-03T15:52:22Z</time>
      </trkpt>
      <trkpt lat="47.17905" lon="4.98248">
        <ele>226.5</ele>
        <time>2019-12-03T15:52:30Z</time>
      </trkpt>
      <trkpt lat="47.17896" lon="4.98244">
        <ele>226.4</ele>
        <time>2019-12-03T15:52:38Z</time>
      </trkpt>
      <trkpt lat="47.17887" lon="4.9824">
        <ele>224.8</ele>
        <time>2019-12-03T15:52:46Z</time>
      </trkpt>
      <trkpt lat="47.17877" lon="4.98235">
        <ele>224</ele>
        <time>2019-12-03T15:52:54Z</time>
      </trkpt>
      <trkpt lat="47.17868" lon="4.98234">
        <ele>224.6</ele>
        <time>2019-12-03T15:53:03Z</time>
      </trkpt>
      <trkpt lat="47.17859" lon="4.98228">
        <ele>225.6</ele>
        <time>2019-12-03T15:53:11Z</time>
      </trkpt>
      <trkpt lat="47.1785" lon="4.98225">
        <ele>224.8</ele>
        <time>2019-12-03T15:53:19Z</time>
      </trkpt>
      <trkpt lat="47.1784" lon="4.98223">
        <ele>224.2</ele>
        <time>2019-12-03T15:53:27Z</time>
      </trkpt>
      <trkpt lat="47.17831" lon="4.98223">
        <ele>223.7</ele>
        <time>2019-12-03T15:53:35Z</time>
      </trkpt>
      <trkpt lat="47.17822" lon="4.98221">
        <ele>224.1</ele>
        <time>2019-12-03T15:53:43Z</time>
      </trkpt>
      <trkpt lat="47.17813" lon="4.98219">
        <ele>224.1</ele>
        <time>2019-12-03T15:53:51Z</time>
      </trkpt>
      <trkpt lat="47.17803" lon="4.98219">
        <ele>225</ele>
        <time>2019-12-03T15:53:59Z</time>
      </trkpt>
      <trkpt lat="47.17794" lon="4.98218">
        <ele>225.2</ele>
        <time>2019-12-03T15:54:06Z</time>
      </trkpt>
      <trkpt lat="47.17785" lon="4.98218">
        <ele>224.1</ele>
        <time>2019-12-03T15:54:14Z</time>
      </trkpt>
      <trkpt lat="47.17774" lon="4.98217">
        <ele>223</ele>
        <time>2019-12-03T15:54:23Z</time>
      </trkpt>
      <trkpt lat="47.17765" lon="4.98215">
        <ele>222.8</ele>
        <time>2019-12-03T15:54:31Z</time>
      </trkpt>
      <trkpt lat="47.17755" lon="4.98213">
        <ele>222.5</ele>
        <time>2019-12-03T15:54:39Z</time>
      </trkpt>
      <trkpt lat="47.17745" lon="4.9821">
        <ele>222.7</ele>
        <time>2019-12-03T15:54:47Z</time>
      </trkpt>
      <trkpt lat="47.17736" lon="4.98207">
        <ele>222.3</ele>
        <time>2019-12-03T15:54:55Z</time>
      </trkpt>
      <trkpt lat="47.17726" lon="4.98204">
        <ele>222.7</ele>
        <time>2019-12-03T15:55:03Z</time>
      </trkpt>
      <trkpt lat="47.17716" lon="4.982">
        <ele>223.1</ele>
        <time>2019-12-03T15:55:11Z</time>
      </trkpt>
      <trkpt lat="47.17707" lon="4.98196">
        <ele>223.3</ele>
        <time>2019-12-03T15:55:19Z</time>
      </trkpt>
      <trkpt lat="47.17698" lon="4.98191">
        <ele>222.6</ele>
        <time>2019-12-03T15:55:27Z</time>
      </trkpt>
      <trkpt lat="47.17689" lon="4.98186">
        <ele>223</ele>
        <time>2019-12-03T15:55:35Z</time>
      </trkpt>
      <trkpt lat="47.17679" lon="4.98181">
        <ele>223.9</ele>
        <time>2019-12-03T15:55:43Z</time>
      </trkpt>
      <trkpt lat="47.1767" lon="4.98177">
        <ele>225</ele>
        <time>2019-12-03T15:55:51Z</time>
      </trkpt>
      <trkpt lat="47.17661" lon="4.98172">
        <ele>225.7</ele>
        <time>2019-12-03T15:55:59Z</time>
      </trkpt>
      <trkpt lat="47.17654" lon="4.98163">
        <ele>225.5</ele>
        <time>2019-12-03T15:56:30Z</time>
      </trkpt>
      <trkpt lat="47.17645" lon="4.98162">
        <ele>225.1</ele>
        <time>2019-12-03T15:56:39Z</time>
      </trkpt>
      <trkpt lat="47.17636" lon="4.98158">
        <ele>223.9</ele>
        <time>2019-12-03T15:56:47Z</time>
      </trkpt>
      <trkpt lat="47.17627" lon="4.98154">
        <ele>224.3</ele>
        <time>2019-12-03T15:56:55Z</time>
      </trkpt>
      <trkpt lat="47.17619" lon="4.98149">
        <ele>224.7</ele>
        <time>2019-12-03T15:57:02Z</time>
      </trkpt>
      <trkpt lat="47.17609" lon="4.98143">
        <ele>225.3</ele>
        <time>2019-12-03T15:57:10Z</time>
      </trkpt>
      <trkpt lat="47.17601" lon="4.98138">
        <ele>225.1</ele>
        <time>2019-12-03T15:57:17Z</time>
      </trkpt>
      <trkpt lat="47.17592" lon="4.98133">
        <ele>225.4</ele>
        <time>2019-12-03T15:57:25Z</time>
      </trkpt>
      <trkpt lat="47.17582" lon="4.98128">
        <ele>226.4</ele>
        <time>2019-12-03T15:57:33Z</time>
      </trkpt>
      <trkpt lat="47.17574" lon="4.98123">
        <ele>226.5</ele>
        <time>2019-12-03T15:57:41Z</time>
      </trkpt>
      <trkpt lat="47.17565" lon="4.98118">
        <ele>226</ele>
        <time>2019-12-03T15:57:49Z</time>
      </trkpt>
      <trkpt lat="47.17556" lon="4.98113">
        <ele>226</ele>
        <time>2019-12-03T15:57:57Z</time>
      </trkpt>
      <trkpt lat="47.17547" lon="4.98108">
        <ele>225.5</ele>
        <time>2019-12-03T15:58:06Z</time>
      </trkpt>
      <trkpt lat="47.17537" lon="4.98103">
        <ele>224.9</ele>
        <time>2019-12-03T15:58:15Z</time>
      </trkpt>
      <trkpt lat="47.17529" lon="4.98098">
        <ele>225.7</ele>
        <time>2019-12-03T15:58:23Z</time>
      </trkpt>
      <trkpt lat="47.17519" lon="4.98092">
        <ele>225.5</ele>
        <time>2019-12-03T15:58:31Z</time>
      </trkpt>
      <trkpt lat="47.1751" lon="4.98088">
        <ele>226.1</ele>
        <time>2019-12-03T15:58:39Z</time>
      </trkpt>
      <trkpt lat="47.17501" lon="4.98083">
        <ele>226.4</ele>
        <time>2019-12-03T15:58:47Z</time>
      </trkpt>
      <trkpt lat="47.17492" lon="4.98078">
        <ele>226.8</ele>
        <time>2019-12-03T15:58:55Z</time>
      </trkpt>
      <trkpt lat="47.17483" lon="4.98075">
        <ele>226.5</ele>
        <time>2019-12-03T15:59:04Z</time>
      </trkpt>
      <trkpt lat="47.17473" lon="4.98069">
        <ele>226.2</ele>
        <time>2019-12-03T15:59:13Z</time>
      </trkpt>
      <trkpt lat="47.17464" lon="4.98064">
        <ele>225.6</ele>
        <time>2019-12-03T15:59:21Z</time>
      </trkpt>
      <trkpt lat="47.17455" lon="4.98059">
        <ele>225</ele>
        <time>2019-12-03T15:59:28Z</time>
      </trkpt>
      <trkpt lat="47.17446" lon="4.98053">
        <ele>224.3</ele>
        <time>2019-12-03T15:59:36Z</time>
      </trkpt>
      <trkpt lat="47.17437" lon="4.98049">
        <ele>224.5</ele>
        <time>2019-12-03T15:59:44Z</time>
      </trkpt>
      <trkpt lat="47.17427" lon="4.98043">
        <ele>224.7</ele>
        <time>2019-12-03T15:59:52Z</time>
      </trkpt>
      <trkpt lat="47.17418" lon="4.98038">
        <ele>225</ele>
        <time>2019-12-03T16:00:00Z</time>
      </trkpt>
      <trkpt lat="47.1741" lon="4.98032">
        <ele>224.9</ele>
        <time>2019-12-03T16:00:08Z</time>
      </trkpt>
      <trkpt lat="47.17401" lon="4.98028">
        <ele>225.6</ele>
        <time>2019-12-03T16:00:16Z</time>
      </trkpt>
      <trkpt lat="47.17393" lon="4.98021">
        <ele>225.5</ele>
        <time>2019-12-03T16:00:32Z</time>
      </trkpt>
      <trkpt lat="47.17384" lon="4.98016">
        <ele>225</ele>
        <time>2019-12-03T16:00:40Z</time>
      </trkpt>
      <trkpt lat="47.17375" lon="4.98012">
        <ele>226.1</ele>
        <time>2019-12-03T16:00:48Z</time>
      </trkpt>
      <trkpt lat="47.17365" lon="4.98008">
        <ele>226.8</ele>
        <time>2019-12-03T16:00:56Z</time>
      </trkpt>
      <trkpt lat="47.17355" lon="4.98007">
        <ele>224.7</ele>
        <time>2019-12-03T16:01:05Z</time>
      </trkpt>
      <trkpt lat="47.17346" lon="4.98006">
        <ele>226.2</ele>
        <time>2019-12-03T16:01:13Z</time>
      </trkpt>
      <trkpt lat="47.17336" lon="4.98005">
        <ele>227.9</ele>
        <time>2019-12-03T16:01:21Z</time>
      </trkpt>
      <trkpt lat="47.17327" lon="4.97998">
        <ele>229.2</ele>
        <time>2019-12-03T16:01:28Z</time>
      </trkpt>
      <trkpt lat="47.17318" lon="4.97997">
        <ele>231.2</ele>
        <time>2019-12-03T16:01:35Z</time>
      </trkpt>
      <trkpt lat="47.17308" lon="4.97993">
        <ele>231.9</ele>
        <time>2019-12-03T16:01:43Z</time>
      </trkpt>
      <trkpt lat="47.173" lon="4.97987">
        <ele>231.2</ele>
        <time>2019-12-03T16:01:50Z</time>
      </trkpt>
      <trkpt lat="47.17292" lon="4.97979">
        <ele>231.5</ele>
        <time>2019-12-03T16:01:57Z</time>
      </trkpt>
      <trkpt lat="47.17283" lon="4.97974">
        <ele>233.5</ele>
        <time>2019-12-03T16:02:04Z</time>
      </trkpt>
      <trkpt lat="47.17273" lon="4.97971">
        <ele>234.9</ele>
        <time>2019-12-03T16:02:12Z</time>
      </trkpt>
      <trkpt lat="47.17264" lon="4.97968">
        <ele>235.8</ele>
        <time>2019-12-03T16:02:20Z</time>
      </trkpt>
      <trkpt lat="47.17254" lon="4.97963">
        <ele>238</ele>
        <time>2019-12-03T16:02:28Z</time>
      </trkpt>
      <trkpt lat="47.17245" lon="4.97966">
        <ele>237.2</ele>
        <time>2019-12-03T16:02:39Z</time>
      </trkpt>
      <trkpt lat="47.17245" lon="4.9798">
        <ele>235.6</ele>
        <time>2019-12-03T16:02:53Z</time>
      </trkpt>
      <trkpt lat="47.17244" lon="4.97994">
        <ele>234.9</ele>
        <time>2019-12-03T16:03:01Z</time>
      </trkpt>
      <trkpt lat="47.17245" lon="4.98008">
        <ele>234.9</ele>
        <time>2019-12-03T16:03:09Z</time>
      </trkpt>
      <trkpt lat="47.17243" lon="4.98022">
        <ele>232.2</ele>
        <time>2019-12-03T16:03:18Z</time>
      </trkpt>
      <trkpt lat="47.17243" lon="4.98036">
        <ele>228.5</ele>
        <time>2019-12-03T16:03:26Z</time>
      </trkpt>
      <trkpt lat="47.17241" lon="4.9805">
        <ele>227.1</ele>
        <time>2019-12-03T16:03:34Z</time>
      </trkpt>
      <trkpt lat="47.1724" lon="4.98064">
        <ele>228.7</ele>
        <time>2019-12-03T16:03:41Z</time>
      </trkpt>
      <trkpt lat="47.1724" lon="4.98079">
        <ele>227.7</ele>
        <time>2019-12-03T16:03:49Z</time>
      </trkpt>
      <trkpt lat="47.17243" lon="4.98092">
        <ele>226.2</ele>
        <time>2019-12-03T16:03:58Z</time>
      </trkpt>
      <trkpt lat="47.17242" lon="4.98106">
        <ele>225.3</ele>
        <time>2019-12-03T16:04:07Z</time>
      </trkpt>
      <trkpt lat="47.17242" lon="4.9812">
        <ele>224.3</ele>
        <time>2019-12-03T16:04:16Z</time>
      </trkpt>
      <trkpt lat="47.1724" lon="4.98134">
        <ele>225.3</ele>
        <time>2019-12-03T16:04:24Z</time>
      </trkpt>
      <trkpt lat="47.1724" lon="4.98147">
        <ele>224.1</ele>
        <time>2019-12-03T16:04:43Z</time>
      </trkpt>
      <trkpt lat="47.17236" lon="4.98139">
        <ele>224.1</ele>
        <time>2019-12-03T16:05:07Z</time>
      </trkpt>
    </trkseg>
  </trk>
</gpx>